<?xml version="1.0" encoding="UTF-8" standalone="no" ?>
<gpx xmlns="http://www.topografix.com/GPX/1/1" xmlns:xsi="http://www.w3.org/2001/XMLSchema-instance" xsi:schemaLocation="http://www.topografix.com/GPX/1/1 http://www.topografix.com/GPX/1/1/gpx.xsd" version="1.1" creator="VisuGPX - https://www.visugpx.com">
  <metadata>
    <name>TAHITI - PEDESTRE - Papeete - La Fautaua itinéraire pour la cascade.</name>
    <desc><![CDATA[Randonnée en direction de la cascade arrêtée au niveau du gué qui nous fait passer rive droite.]]></desc>
  </metadata>
  <wpt lat="-17.56196" lon="-149.53959">
    <ele>98</ele>
    <name><![CDATA[Départ/Arrivée La Fautaua]]></name>
    <desc><![CDATA[24-MAI-12 6:49:59]]></desc>
  </wpt>
  <wpt lat="-17.59276" lon="-149.52897">
    <ele>258</ele>
    <name><![CDATA[Passage gué & bout de la rando]]></name>
    <desc><![CDATA[18-MAI-12 7:24:48]]></desc>
  </wpt>
  <trk>
    <name><![CDATA[ACTIVE LOG 013]]></name>
    <trkseg>
      <trkpt lat="-17.56186" lon="-149.53956">
        <ele>89.059326</ele>
        <time>2012-05-18T17:15:31Z</time>
      </trkpt>
      <trkpt lat="-17.56186" lon="-149.53956">
        <ele>88.578735</ele>
        <time>2012-05-18T17:15:32Z</time>
      </trkpt>
      <trkpt lat="-17.56186" lon="-149.53956">
        <ele>89.059326</ele>
        <time>2012-05-18T17:15:33Z</time>
      </trkpt>
      <trkpt lat="-17.56188" lon="-149.53956">
        <ele>89.059326</ele>
        <time>2012-05-18T17:16:02Z</time>
      </trkpt>
      <trkpt lat="-17.56184" lon="-149.53942">
        <ele>90.02063</ele>
        <time>2012-05-18T17:16:17Z</time>
      </trkpt>
      <trkpt lat="-17.56183" lon="-149.53924">
        <ele>90.02063</ele>
        <time>2012-05-18T17:16:26Z</time>
      </trkpt>
      <trkpt lat="-17.56183" lon="-149.53893">
        <ele>90.501343</ele>
        <time>2012-05-18T17:16:39Z</time>
      </trkpt>
      <trkpt lat="-17.56196" lon="-149.53882">
        <ele>90.981934</ele>
        <time>2012-05-18T17:16:54Z</time>
      </trkpt>
      <trkpt lat="-17.56208" lon="-149.53884">
        <ele>90.981934</ele>
        <time>2012-05-18T17:17:06Z</time>
      </trkpt>
      <trkpt lat="-17.56222" lon="-149.53902">
        <ele>90.981934</ele>
        <time>2012-05-18T17:17:20Z</time>
      </trkpt>
      <trkpt lat="-17.56226" lon="-149.53905">
        <ele>91.462524</ele>
        <time>2012-05-18T17:17:25Z</time>
      </trkpt>
      <trkpt lat="-17.56239" lon="-149.53895">
        <ele>92.42395</ele>
        <time>2012-05-18T17:17:41Z</time>
      </trkpt>
      <trkpt lat="-17.56256" lon="-149.53893">
        <ele>92.904541</ele>
        <time>2012-05-18T17:17:48Z</time>
      </trkpt>
      <trkpt lat="-17.56271" lon="-149.53893">
        <ele>95.788452</ele>
        <time>2012-05-18T17:18:01Z</time>
      </trkpt>
      <trkpt lat="-17.5628" lon="-149.53884">
        <ele>97.230469</ele>
        <time>2012-05-18T17:18:14Z</time>
      </trkpt>
      <trkpt lat="-17.5629" lon="-149.53874">
        <ele>98.191895</ele>
        <time>2012-05-18T17:18:27Z</time>
      </trkpt>
      <trkpt lat="-17.56307" lon="-149.53871">
        <ele>100.114502</ele>
        <time>2012-05-18T17:18:43Z</time>
      </trkpt>
      <trkpt lat="-17.56328" lon="-149.53881">
        <ele>100.114502</ele>
        <time>2012-05-18T17:18:58Z</time>
      </trkpt>
      <trkpt lat="-17.56335" lon="-149.53888">
        <ele>100.114502</ele>
        <time>2012-05-18T17:19:03Z</time>
      </trkpt>
      <trkpt lat="-17.56346" lon="-149.53883">
        <ele>100.595093</ele>
        <time>2012-05-18T17:19:16Z</time>
      </trkpt>
      <trkpt lat="-17.56358" lon="-149.53888">
        <ele>100.595093</ele>
        <time>2012-05-18T17:19:29Z</time>
      </trkpt>
      <trkpt lat="-17.56371" lon="-149.53891">
        <ele>100.595093</ele>
        <time>2012-05-18T17:19:42Z</time>
      </trkpt>
      <trkpt lat="-17.56384" lon="-149.53901">
        <ele>99.633789</ele>
        <time>2012-05-18T17:19:52Z</time>
      </trkpt>
      <trkpt lat="-17.56392" lon="-149.53897">
        <ele>100.114502</ele>
        <time>2012-05-18T17:20:02Z</time>
      </trkpt>
      <trkpt lat="-17.56397" lon="-149.53904">
        <ele>100.114502</ele>
        <time>2012-05-18T17:20:09Z</time>
      </trkpt>
      <trkpt lat="-17.56401" lon="-149.53925">
        <ele>100.114502</ele>
        <time>2012-05-18T17:20:20Z</time>
      </trkpt>
      <trkpt lat="-17.56412" lon="-149.53943">
        <ele>100.595093</ele>
        <time>2012-05-18T17:20:31Z</time>
      </trkpt>
      <trkpt lat="-17.56426" lon="-149.53946">
        <ele>101.075684</ele>
        <time>2012-05-18T17:20:43Z</time>
      </trkpt>
      <trkpt lat="-17.56452" lon="-149.5393">
        <ele>100.114502</ele>
        <time>2012-05-18T17:21:04Z</time>
      </trkpt>
      <trkpt lat="-17.56467" lon="-149.53915">
        <ele>100.114502</ele>
        <time>2012-05-18T17:21:22Z</time>
      </trkpt>
      <trkpt lat="-17.56485" lon="-149.539">
        <ele>100.595093</ele>
        <time>2012-05-18T17:21:38Z</time>
      </trkpt>
      <trkpt lat="-17.56495" lon="-149.53885">
        <ele>101.075684</ele>
        <time>2012-05-18T17:21:48Z</time>
      </trkpt>
      <trkpt lat="-17.56507" lon="-149.53882">
        <ele>101.075684</ele>
        <time>2012-05-18T17:21:58Z</time>
      </trkpt>
      <trkpt lat="-17.5652" lon="-149.53868">
        <ele>102.037109</ele>
        <time>2012-05-18T17:22:11Z</time>
      </trkpt>
      <trkpt lat="-17.56532" lon="-149.53861">
        <ele>101.556396</ele>
        <time>2012-05-18T17:22:21Z</time>
      </trkpt>
      <trkpt lat="-17.5654" lon="-149.53853">
        <ele>102.5177</ele>
        <time>2012-05-18T17:22:32Z</time>
      </trkpt>
      <trkpt lat="-17.56547" lon="-149.53838">
        <ele>102.5177</ele>
        <time>2012-05-18T17:22:43Z</time>
      </trkpt>
      <trkpt lat="-17.56554" lon="-149.53822">
        <ele>102.5177</ele>
        <time>2012-05-18T17:22:54Z</time>
      </trkpt>
      <trkpt lat="-17.5657" lon="-149.53822">
        <ele>102.998291</ele>
        <time>2012-05-18T17:23:06Z</time>
      </trkpt>
      <trkpt lat="-17.56573" lon="-149.53822">
        <ele>102.998291</ele>
        <time>2012-05-18T17:23:08Z</time>
      </trkpt>
      <trkpt lat="-17.56578" lon="-149.5382">
        <ele>102.998291</ele>
        <time>2012-05-18T17:23:12Z</time>
      </trkpt>
      <trkpt lat="-17.56592" lon="-149.53814">
        <ele>103.959717</ele>
        <time>2012-05-18T17:23:26Z</time>
      </trkpt>
      <trkpt lat="-17.56595" lon="-149.53796">
        <ele>104.921021</ele>
        <time>2012-05-18T17:23:37Z</time>
      </trkpt>
      <trkpt lat="-17.56613" lon="-149.5378">
        <ele>104.44043</ele>
        <time>2012-05-18T17:23:55Z</time>
      </trkpt>
      <trkpt lat="-17.56616" lon="-149.53782">
        <ele>105.401733</ele>
        <time>2012-05-18T17:23:57Z</time>
      </trkpt>
      <trkpt lat="-17.56627" lon="-149.53776">
        <ele>105.882446</ele>
        <time>2012-05-18T17:24:07Z</time>
      </trkpt>
      <trkpt lat="-17.56645" lon="-149.53781">
        <ele>106.843628</ele>
        <time>2012-05-18T17:24:18Z</time>
      </trkpt>
      <trkpt lat="-17.56661" lon="-149.53779">
        <ele>108.285645</ele>
        <time>2012-05-18T17:24:29Z</time>
      </trkpt>
      <trkpt lat="-17.56675" lon="-149.53776">
        <ele>109.246948</ele>
        <time>2012-05-18T17:24:40Z</time>
      </trkpt>
      <trkpt lat="-17.5669" lon="-149.53771">
        <ele>108.766235</ele>
        <time>2012-05-18T17:24:53Z</time>
      </trkpt>
      <trkpt lat="-17.5671" lon="-149.53762">
        <ele>109.246948</ele>
        <time>2012-05-18T17:25:09Z</time>
      </trkpt>
      <trkpt lat="-17.56724" lon="-149.53763">
        <ele>110.208252</ele>
        <time>2012-05-18T17:25:21Z</time>
      </trkpt>
      <trkpt lat="-17.56736" lon="-149.53753">
        <ele>110.688843</ele>
        <time>2012-05-18T17:25:37Z</time>
      </trkpt>
      <trkpt lat="-17.5675" lon="-149.53753">
        <ele>111.169556</ele>
        <time>2012-05-18T17:25:50Z</time>
      </trkpt>
      <trkpt lat="-17.56761" lon="-149.53756">
        <ele>112.611572</ele>
        <time>2012-05-18T17:25:59Z</time>
      </trkpt>
      <trkpt lat="-17.56776" lon="-149.53756">
        <ele>112.611572</ele>
        <time>2012-05-18T17:26:10Z</time>
      </trkpt>
      <trkpt lat="-17.56797" lon="-149.53745">
        <ele>113.572998</ele>
        <time>2012-05-18T17:26:32Z</time>
      </trkpt>
      <trkpt lat="-17.56811" lon="-149.53744">
        <ele>114.053589</ele>
        <time>2012-05-18T17:26:46Z</time>
      </trkpt>
      <trkpt lat="-17.56816" lon="-149.53746">
        <ele>114.53418</ele>
        <time>2012-05-18T17:26:50Z</time>
      </trkpt>
      <trkpt lat="-17.56836" lon="-149.5375">
        <ele>115.976196</ele>
        <time>2012-05-18T17:27:03Z</time>
      </trkpt>
      <trkpt lat="-17.56843" lon="-149.53748">
        <ele>116.456787</ele>
        <time>2012-05-18T17:27:08Z</time>
      </trkpt>
      <trkpt lat="-17.56863" lon="-149.53727">
        <ele>116.9375</ele>
        <time>2012-05-18T17:27:20Z</time>
      </trkpt>
      <trkpt lat="-17.56876" lon="-149.5372">
        <ele>118.860107</ele>
        <time>2012-05-18T17:27:31Z</time>
      </trkpt>
      <trkpt lat="-17.5689" lon="-149.53719">
        <ele>119.821411</ele>
        <time>2012-05-18T17:27:39Z</time>
      </trkpt>
      <trkpt lat="-17.569" lon="-149.53722">
        <ele>119.34082</ele>
        <time>2012-05-18T17:27:46Z</time>
      </trkpt>
      <trkpt lat="-17.56905" lon="-149.53724">
        <ele>119.821411</ele>
        <time>2012-05-18T17:27:50Z</time>
      </trkpt>
      <trkpt lat="-17.56915" lon="-149.53724">
        <ele>120.302124</ele>
        <time>2012-05-18T17:28:02Z</time>
      </trkpt>
      <trkpt lat="-17.56928" lon="-149.53726">
        <ele>121.26355</ele>
        <time>2012-05-18T17:28:14Z</time>
      </trkpt>
      <trkpt lat="-17.56936" lon="-149.53726">
        <ele>121.744141</ele>
        <time>2012-05-18T17:28:21Z</time>
      </trkpt>
      <trkpt lat="-17.56945" lon="-149.53724">
        <ele>122.705444</ele>
        <time>2012-05-18T17:28:29Z</time>
      </trkpt>
      <trkpt lat="-17.56961" lon="-149.53736">
        <ele>121.744141</ele>
        <time>2012-05-18T17:28:38Z</time>
      </trkpt>
      <trkpt lat="-17.56973" lon="-149.53731">
        <ele>121.744141</ele>
        <time>2012-05-18T17:28:49Z</time>
      </trkpt>
      <trkpt lat="-17.5698" lon="-149.53733">
        <ele>121.744141</ele>
        <time>2012-05-18T17:28:54Z</time>
      </trkpt>
      <trkpt lat="-17.56992" lon="-149.53736">
        <ele>121.744141</ele>
        <time>2012-05-18T17:29:05Z</time>
      </trkpt>
      <trkpt lat="-17.57007" lon="-149.53731">
        <ele>123.186157</ele>
        <time>2012-05-18T17:29:19Z</time>
      </trkpt>
      <trkpt lat="-17.57024" lon="-149.53733">
        <ele>123.666748</ele>
        <time>2012-05-18T17:29:32Z</time>
      </trkpt>
      <trkpt lat="-17.57041" lon="-149.53741">
        <ele>125.108765</ele>
        <time>2012-05-18T17:29:44Z</time>
      </trkpt>
      <trkpt lat="-17.57057" lon="-149.5375">
        <ele>126.069946</ele>
        <time>2012-05-18T17:30:04Z</time>
      </trkpt>
      <trkpt lat="-17.57064" lon="-149.53749">
        <ele>127.031372</ele>
        <time>2012-05-18T17:30:16Z</time>
      </trkpt>
      <trkpt lat="-17.57072" lon="-149.53736">
        <ele>127.511963</ele>
        <time>2012-05-18T17:30:25Z</time>
      </trkpt>
      <trkpt lat="-17.57078" lon="-149.53728">
        <ele>127.992554</ele>
        <time>2012-05-18T17:30:30Z</time>
      </trkpt>
      <trkpt lat="-17.57091" lon="-149.53721">
        <ele>127.511963</ele>
        <time>2012-05-18T17:30:40Z</time>
      </trkpt>
      <trkpt lat="-17.57104" lon="-149.53718">
        <ele>127.031372</ele>
        <time>2012-05-18T17:30:51Z</time>
      </trkpt>
      <trkpt lat="-17.57124" lon="-149.5373">
        <ele>126.069946</ele>
        <time>2012-05-18T17:31:04Z</time>
      </trkpt>
      <trkpt lat="-17.57129" lon="-149.53732">
        <ele>126.069946</ele>
        <time>2012-05-18T17:31:07Z</time>
      </trkpt>
      <trkpt lat="-17.57145" lon="-149.53749">
        <ele>125.108765</ele>
        <time>2012-05-18T17:31:18Z</time>
      </trkpt>
      <trkpt lat="-17.57151" lon="-149.53745">
        <ele>125.108765</ele>
        <time>2012-05-18T17:31:27Z</time>
      </trkpt>
      <trkpt lat="-17.57164" lon="-149.53746">
        <ele>124.147339</ele>
        <time>2012-05-18T17:31:40Z</time>
      </trkpt>
      <trkpt lat="-17.57165" lon="-149.53753">
        <ele>124.628052</ele>
        <time>2012-05-18T17:31:50Z</time>
      </trkpt>
      <trkpt lat="-17.57181" lon="-149.53733">
        <ele>126.550659</ele>
        <time>2012-05-18T17:32:18Z</time>
      </trkpt>
      <trkpt lat="-17.57193" lon="-149.53719">
        <ele>127.992554</ele>
        <time>2012-05-18T17:32:33Z</time>
      </trkpt>
      <trkpt lat="-17.57201" lon="-149.53711">
        <ele>128.954102</ele>
        <time>2012-05-18T17:32:42Z</time>
      </trkpt>
      <trkpt lat="-17.57221" lon="-149.53683">
        <ele>131.3573</ele>
        <time>2012-05-18T17:33:00Z</time>
      </trkpt>
      <trkpt lat="-17.57234" lon="-149.53664">
        <ele>132.799316</ele>
        <time>2012-05-18T17:33:13Z</time>
      </trkpt>
      <trkpt lat="-17.57233" lon="-149.53664">
        <ele>132.799316</ele>
        <time>2012-05-18T17:33:23Z</time>
      </trkpt>
      <trkpt lat="-17.57239" lon="-149.53659">
        <ele>133.760498</ele>
        <time>2012-05-18T17:33:40Z</time>
      </trkpt>
      <trkpt lat="-17.57238" lon="-149.53633">
        <ele>134.721924</ele>
        <time>2012-05-18T17:33:53Z</time>
      </trkpt>
      <trkpt lat="-17.5724" lon="-149.536">
        <ele>134.721924</ele>
        <time>2012-05-18T17:34:12Z</time>
      </trkpt>
      <trkpt lat="-17.57258" lon="-149.53579">
        <ele>135.683105</ele>
        <time>2012-05-18T17:34:30Z</time>
      </trkpt>
      <trkpt lat="-17.57276" lon="-149.53579">
        <ele>134.721924</ele>
        <time>2012-05-18T17:34:41Z</time>
      </trkpt>
      <trkpt lat="-17.57303" lon="-149.53541">
        <ele>134.241211</ele>
        <time>2012-05-18T17:34:52Z</time>
      </trkpt>
      <trkpt lat="-17.57318" lon="-149.53542">
        <ele>133.760498</ele>
        <time>2012-05-18T17:35:00Z</time>
      </trkpt>
      <trkpt lat="-17.57326" lon="-149.53546">
        <ele>133.760498</ele>
        <time>2012-05-18T17:35:03Z</time>
      </trkpt>
      <trkpt lat="-17.57347" lon="-149.5355">
        <ele>133.279907</ele>
        <time>2012-05-18T17:35:15Z</time>
      </trkpt>
      <trkpt lat="-17.57356" lon="-149.53555">
        <ele>133.279907</ele>
        <time>2012-05-18T17:35:30Z</time>
      </trkpt>
      <trkpt lat="-17.57372" lon="-149.53559">
        <ele>134.241211</ele>
        <time>2012-05-18T17:35:50Z</time>
      </trkpt>
      <trkpt lat="-17.57386" lon="-149.53555">
        <ele>135.202515</ele>
        <time>2012-05-18T17:36:04Z</time>
      </trkpt>
      <trkpt lat="-17.57399" lon="-149.53559">
        <ele>136.16394</ele>
        <time>2012-05-18T17:36:16Z</time>
      </trkpt>
      <trkpt lat="-17.57418" lon="-149.53549">
        <ele>136.644653</ele>
        <time>2012-05-18T17:36:34Z</time>
      </trkpt>
      <trkpt lat="-17.57437" lon="-149.53525">
        <ele>138.086548</ele>
        <time>2012-05-18T17:36:50Z</time>
      </trkpt>
      <trkpt lat="-17.57446" lon="-149.53511">
        <ele>137.605835</ele>
        <time>2012-05-18T17:37:01Z</time>
      </trkpt>
      <trkpt lat="-17.57463" lon="-149.53504">
        <ele>138.567261</ele>
        <time>2012-05-18T17:37:18Z</time>
      </trkpt>
      <trkpt lat="-17.57476" lon="-149.53489">
        <ele>138.567261</ele>
        <time>2012-05-18T17:37:28Z</time>
      </trkpt>
      <trkpt lat="-17.57489" lon="-149.53483">
        <ele>139.047852</ele>
        <time>2012-05-18T17:37:39Z</time>
      </trkpt>
      <trkpt lat="-17.57506" lon="-149.53477">
        <ele>138.567261</ele>
        <time>2012-05-18T17:37:52Z</time>
      </trkpt>
      <trkpt lat="-17.57515" lon="-149.53479">
        <ele>139.528442</ele>
        <time>2012-05-18T17:38:03Z</time>
      </trkpt>
      <trkpt lat="-17.5753" lon="-149.53473">
        <ele>140.009155</ele>
        <time>2012-05-18T17:38:20Z</time>
      </trkpt>
      <trkpt lat="-17.57546" lon="-149.53461">
        <ele>141.45105</ele>
        <time>2012-05-18T17:38:35Z</time>
      </trkpt>
      <trkpt lat="-17.57566" lon="-149.53464">
        <ele>143.373657</ele>
        <time>2012-05-18T17:38:57Z</time>
      </trkpt>
      <trkpt lat="-17.57574" lon="-149.53457">
        <ele>143.373657</ele>
        <time>2012-05-18T17:39:03Z</time>
      </trkpt>
      <trkpt lat="-17.57576" lon="-149.53455">
        <ele>143.373657</ele>
        <time>2012-05-18T17:39:05Z</time>
      </trkpt>
      <trkpt lat="-17.57591" lon="-149.53431">
        <ele>144.335205</ele>
        <time>2012-05-18T17:39:21Z</time>
      </trkpt>
      <trkpt lat="-17.57608" lon="-149.53442">
        <ele>145.296387</ele>
        <time>2012-05-18T17:39:40Z</time>
      </trkpt>
      <trkpt lat="-17.5762" lon="-149.53426">
        <ele>145.7771</ele>
        <time>2012-05-18T17:39:51Z</time>
      </trkpt>
      <trkpt lat="-17.57628" lon="-149.53426">
        <ele>145.7771</ele>
        <time>2012-05-18T17:40:00Z</time>
      </trkpt>
      <trkpt lat="-17.57638" lon="-149.53415">
        <ele>146.257812</ele>
        <time>2012-05-18T17:40:09Z</time>
      </trkpt>
      <trkpt lat="-17.57648" lon="-149.53408">
        <ele>146.738403</ele>
        <time>2012-05-18T17:40:18Z</time>
      </trkpt>
      <trkpt lat="-17.57662" lon="-149.53389">
        <ele>146.738403</ele>
        <time>2012-05-18T17:40:30Z</time>
      </trkpt>
      <trkpt lat="-17.57662" lon="-149.5339">
        <ele>146.738403</ele>
        <time>2012-05-18T17:40:31Z</time>
      </trkpt>
      <trkpt lat="-17.57673" lon="-149.53384">
        <ele>147.699707</ele>
        <time>2012-05-18T17:40:43Z</time>
      </trkpt>
      <trkpt lat="-17.57684" lon="-149.53404">
        <ele>148.661011</ele>
        <time>2012-05-18T17:40:52Z</time>
      </trkpt>
      <trkpt lat="-17.57686" lon="-149.53402">
        <ele>147.699707</ele>
        <time>2012-05-18T17:40:53Z</time>
      </trkpt>
      <trkpt lat="-17.57697" lon="-149.53405">
        <ele>150.103027</ele>
        <time>2012-05-18T17:41:03Z</time>
      </trkpt>
      <trkpt lat="-17.57714" lon="-149.53405">
        <ele>149.141602</ele>
        <time>2012-05-18T17:41:15Z</time>
      </trkpt>
      <trkpt lat="-17.57724" lon="-149.53403">
        <ele>149.622314</ele>
        <time>2012-05-18T17:41:25Z</time>
      </trkpt>
      <trkpt lat="-17.57739" lon="-149.53394">
        <ele>150.103027</ele>
        <time>2012-05-18T17:41:42Z</time>
      </trkpt>
      <trkpt lat="-17.57796" lon="-149.53418">
        <ele>151.064209</ele>
        <time>2012-05-18T17:42:32Z</time>
      </trkpt>
      <trkpt lat="-17.5781" lon="-149.53417">
        <ele>152.025757</ele>
        <time>2012-05-18T17:42:43Z</time>
      </trkpt>
      <trkpt lat="-17.57825" lon="-149.5342">
        <ele>152.506348</ele>
        <time>2012-05-18T17:42:58Z</time>
      </trkpt>
      <trkpt lat="-17.57838" lon="-149.53417">
        <ele>152.506348</ele>
        <time>2012-05-18T17:43:06Z</time>
      </trkpt>
      <trkpt lat="-17.57849" lon="-149.53413">
        <ele>152.986938</ele>
        <time>2012-05-18T17:43:19Z</time>
      </trkpt>
      <trkpt lat="-17.57863" lon="-149.53423">
        <ele>153.948364</ele>
        <time>2012-05-18T17:43:31Z</time>
      </trkpt>
      <trkpt lat="-17.57871" lon="-149.53414">
        <ele>154.428955</ele>
        <time>2012-05-18T17:43:37Z</time>
      </trkpt>
      <trkpt lat="-17.57879" lon="-149.53416">
        <ele>154.428955</ele>
        <time>2012-05-18T17:43:46Z</time>
      </trkpt>
      <trkpt lat="-17.5789" lon="-149.5342">
        <ele>154.909546</ele>
        <time>2012-05-18T17:43:56Z</time>
      </trkpt>
      <trkpt lat="-17.57902" lon="-149.53412">
        <ele>154.909546</ele>
        <time>2012-05-18T17:44:07Z</time>
      </trkpt>
      <trkpt lat="-17.57904" lon="-149.53411">
        <ele>154.909546</ele>
        <time>2012-05-18T17:44:09Z</time>
      </trkpt>
      <trkpt lat="-17.5792" lon="-149.53416">
        <ele>154.909546</ele>
        <time>2012-05-18T17:44:22Z</time>
      </trkpt>
      <trkpt lat="-17.57939" lon="-149.53423">
        <ele>154.909546</ele>
        <time>2012-05-18T17:44:45Z</time>
      </trkpt>
      <trkpt lat="-17.57953" lon="-149.53414">
        <ele>155.870972</ele>
        <time>2012-05-18T17:44:58Z</time>
      </trkpt>
      <trkpt lat="-17.57963" lon="-149.53426">
        <ele>155.870972</ele>
        <time>2012-05-18T17:45:06Z</time>
      </trkpt>
      <trkpt lat="-17.57977" lon="-149.5343">
        <ele>155.870972</ele>
        <time>2012-05-18T17:45:18Z</time>
      </trkpt>
      <trkpt lat="-17.5802" lon="-149.53415">
        <ele>157.312866</ele>
        <time>2012-05-18T17:46:08Z</time>
      </trkpt>
      <trkpt lat="-17.58048" lon="-149.53395">
        <ele>157.312866</ele>
        <time>2012-05-18T17:46:34Z</time>
      </trkpt>
      <trkpt lat="-17.5806" lon="-149.53372">
        <ele>158.754761</ele>
        <time>2012-05-18T17:46:51Z</time>
      </trkpt>
      <trkpt lat="-17.58083" lon="-149.53365">
        <ele>159.235474</ele>
        <time>2012-05-18T17:47:05Z</time>
      </trkpt>
      <trkpt lat="-17.581" lon="-149.53372">
        <ele>160.196899</ele>
        <time>2012-05-18T17:47:16Z</time>
      </trkpt>
      <trkpt lat="-17.58111" lon="-149.53353">
        <ele>160.196899</ele>
        <time>2012-05-18T17:47:39Z</time>
      </trkpt>
      <trkpt lat="-17.5813" lon="-149.53328">
        <ele>162.600098</ele>
        <time>2012-05-18T17:48:16Z</time>
      </trkpt>
      <trkpt lat="-17.58143" lon="-149.53344">
        <ele>164.042114</ele>
        <time>2012-05-18T17:48:29Z</time>
      </trkpt>
      <trkpt lat="-17.58148" lon="-149.53348">
        <ele>166.926025</ele>
        <time>2012-05-18T17:48:50Z</time>
      </trkpt>
      <trkpt lat="-17.58154" lon="-149.53371">
        <ele>167.406738</ele>
        <time>2012-05-18T17:49:00Z</time>
      </trkpt>
      <trkpt lat="-17.58158" lon="-149.53388">
        <ele>167.406738</ele>
        <time>2012-05-18T17:49:06Z</time>
      </trkpt>
      <trkpt lat="-17.58165" lon="-149.53394">
        <ele>168.368042</ele>
        <time>2012-05-18T17:49:15Z</time>
      </trkpt>
      <trkpt lat="-17.58161" lon="-149.53394">
        <ele>169.810059</ele>
        <time>2012-05-18T17:49:27Z</time>
      </trkpt>
      <trkpt lat="-17.58159" lon="-149.53381">
        <ele>169.810059</ele>
        <time>2012-05-18T17:49:38Z</time>
      </trkpt>
      <trkpt lat="-17.58168" lon="-149.53363">
        <ele>170.771362</ele>
        <time>2012-05-18T17:50:01Z</time>
      </trkpt>
      <trkpt lat="-17.58176" lon="-149.53332">
        <ele>171.252075</ele>
        <time>2012-05-18T17:50:14Z</time>
      </trkpt>
      <trkpt lat="-17.5818" lon="-149.53317">
        <ele>173.655273</ele>
        <time>2012-05-18T17:50:27Z</time>
      </trkpt>
      <trkpt lat="-17.58185" lon="-149.53284">
        <ele>176.539307</ele>
        <time>2012-05-18T17:50:44Z</time>
      </trkpt>
      <trkpt lat="-17.5819" lon="-149.53268">
        <ele>177.02002</ele>
        <time>2012-05-18T17:50:49Z</time>
      </trkpt>
      <trkpt lat="-17.58205" lon="-149.53225">
        <ele>177.981201</ele>
        <time>2012-05-18T17:51:03Z</time>
      </trkpt>
      <trkpt lat="-17.58208" lon="-149.53216">
        <ele>178.461914</ele>
        <time>2012-05-18T17:51:06Z</time>
      </trkpt>
      <trkpt lat="-17.58209" lon="-149.53196">
        <ele>178.461914</ele>
        <time>2012-05-18T17:51:10Z</time>
      </trkpt>
      <trkpt lat="-17.58224" lon="-149.53181">
        <ele>178.942627</ele>
        <time>2012-05-18T17:51:22Z</time>
      </trkpt>
      <trkpt lat="-17.58228" lon="-149.53174">
        <ele>178.942627</ele>
        <time>2012-05-18T17:51:38Z</time>
      </trkpt>
      <trkpt lat="-17.58247" lon="-149.53151">
        <ele>180.865234</ele>
        <time>2012-05-18T17:51:57Z</time>
      </trkpt>
      <trkpt lat="-17.58258" lon="-149.53144">
        <ele>180.865234</ele>
        <time>2012-05-18T17:52:10Z</time>
      </trkpt>
      <trkpt lat="-17.58262" lon="-149.53139">
        <ele>180.865234</ele>
        <time>2012-05-18T17:52:15Z</time>
      </trkpt>
      <trkpt lat="-17.5827" lon="-149.53135">
        <ele>180.865234</ele>
        <time>2012-05-18T17:52:27Z</time>
      </trkpt>
      <trkpt lat="-17.58279" lon="-149.53126">
        <ele>181.345825</ele>
        <time>2012-05-18T17:52:38Z</time>
      </trkpt>
      <trkpt lat="-17.5828" lon="-149.53125">
        <ele>181.345825</ele>
        <time>2012-05-18T17:52:39Z</time>
      </trkpt>
      <trkpt lat="-17.5829" lon="-149.53116">
        <ele>181.345825</ele>
        <time>2012-05-18T17:52:54Z</time>
      </trkpt>
      <trkpt lat="-17.58296" lon="-149.53106">
        <ele>181.345825</ele>
        <time>2012-05-18T17:53:00Z</time>
      </trkpt>
      <trkpt lat="-17.58305" lon="-149.53104">
        <ele>181.345825</ele>
        <time>2012-05-18T17:53:11Z</time>
      </trkpt>
      <trkpt lat="-17.58313" lon="-149.53076">
        <ele>182.787842</ele>
        <time>2012-05-18T17:53:47Z</time>
      </trkpt>
      <trkpt lat="-17.58318" lon="-149.53046">
        <ele>182.307129</ele>
        <time>2012-05-18T17:53:58Z</time>
      </trkpt>
      <trkpt lat="-17.58319" lon="-149.53046">
        <ele>182.307129</ele>
        <time>2012-05-18T17:53:59Z</time>
      </trkpt>
      <trkpt lat="-17.58331" lon="-149.53047">
        <ele>182.787842</ele>
        <time>2012-05-18T17:54:07Z</time>
      </trkpt>
      <trkpt lat="-17.58336" lon="-149.5303">
        <ele>183.268433</ele>
        <time>2012-05-18T17:54:15Z</time>
      </trkpt>
      <trkpt lat="-17.5834" lon="-149.53028">
        <ele>184.710571</ele>
        <time>2012-05-18T17:54:28Z</time>
      </trkpt>
      <trkpt lat="-17.58369" lon="-149.53003">
        <ele>186.633179</ele>
        <time>2012-05-18T17:54:52Z</time>
      </trkpt>
      <trkpt lat="-17.58374" lon="-149.52995">
        <ele>187.11377</ele>
        <time>2012-05-18T17:55:01Z</time>
      </trkpt>
      <trkpt lat="-17.58375" lon="-149.52973">
        <ele>188.555786</ele>
        <time>2012-05-18T17:55:15Z</time>
      </trkpt>
      <trkpt lat="-17.58382" lon="-149.5295">
        <ele>189.516968</ele>
        <time>2012-05-18T17:55:27Z</time>
      </trkpt>
      <trkpt lat="-17.58392" lon="-149.52944">
        <ele>190.478394</ele>
        <time>2012-05-18T17:55:37Z</time>
      </trkpt>
      <trkpt lat="-17.58429" lon="-149.52943">
        <ele>190.958984</ele>
        <time>2012-05-18T17:56:00Z</time>
      </trkpt>
      <trkpt lat="-17.58436" lon="-149.52928">
        <ele>191.920288</ele>
        <time>2012-05-18T17:56:08Z</time>
      </trkpt>
      <trkpt lat="-17.58453" lon="-149.5292">
        <ele>191.920288</ele>
        <time>2012-05-18T17:56:19Z</time>
      </trkpt>
      <trkpt lat="-17.58473" lon="-149.52926">
        <ele>191.920288</ele>
        <time>2012-05-18T17:56:31Z</time>
      </trkpt>
      <trkpt lat="-17.58481" lon="-149.52918">
        <ele>192.401123</ele>
        <time>2012-05-18T17:56:42Z</time>
      </trkpt>
      <trkpt lat="-17.58497" lon="-149.52916">
        <ele>193.362305</ele>
        <time>2012-05-18T17:56:56Z</time>
      </trkpt>
      <trkpt lat="-17.58508" lon="-149.52915">
        <ele>193.362305</ele>
        <time>2012-05-18T17:57:05Z</time>
      </trkpt>
      <trkpt lat="-17.58526" lon="-149.52913">
        <ele>193.843018</ele>
        <time>2012-05-18T17:57:22Z</time>
      </trkpt>
      <trkpt lat="-17.5854" lon="-149.52914">
        <ele>193.843018</ele>
        <time>2012-05-18T17:57:34Z</time>
      </trkpt>
      <trkpt lat="-17.58549" lon="-149.52905">
        <ele>195.284912</ele>
        <time>2012-05-18T17:57:52Z</time>
      </trkpt>
      <trkpt lat="-17.58571" lon="-149.52888">
        <ele>197.20752</ele>
        <time>2012-05-18T17:58:12Z</time>
      </trkpt>
      <trkpt lat="-17.58594" lon="-149.52869">
        <ele>199.130127</ele>
        <time>2012-05-18T17:58:41Z</time>
      </trkpt>
      <trkpt lat="-17.58614" lon="-149.52865">
        <ele>200.572266</ele>
        <time>2012-05-18T17:58:53Z</time>
      </trkpt>
      <trkpt lat="-17.58623" lon="-149.52861">
        <ele>201.052856</ele>
        <time>2012-05-18T17:59:00Z</time>
      </trkpt>
      <trkpt lat="-17.58633" lon="-149.52859">
        <ele>202.014282</ele>
        <time>2012-05-18T17:59:07Z</time>
      </trkpt>
      <trkpt lat="-17.58643" lon="-149.52845">
        <ele>201.533569</ele>
        <time>2012-05-18T17:59:16Z</time>
      </trkpt>
      <trkpt lat="-17.58653" lon="-149.52828">
        <ele>202.014282</ele>
        <time>2012-05-18T17:59:26Z</time>
      </trkpt>
      <trkpt lat="-17.58672" lon="-149.52821">
        <ele>202.975464</ele>
        <time>2012-05-18T17:59:39Z</time>
      </trkpt>
      <trkpt lat="-17.58688" lon="-149.52837">
        <ele>202.975464</ele>
        <time>2012-05-18T17:59:54Z</time>
      </trkpt>
      <trkpt lat="-17.58699" lon="-149.52855">
        <ele>202.975464</ele>
        <time>2012-05-18T18:00:05Z</time>
      </trkpt>
      <trkpt lat="-17.58706" lon="-149.52853">
        <ele>203.456177</ele>
        <time>2012-05-18T18:00:16Z</time>
      </trkpt>
      <trkpt lat="-17.58713" lon="-149.52855">
        <ele>204.41748</ele>
        <time>2012-05-18T18:00:23Z</time>
      </trkpt>
      <trkpt lat="-17.5872" lon="-149.52845">
        <ele>203.93689</ele>
        <time>2012-05-18T18:00:31Z</time>
      </trkpt>
      <trkpt lat="-17.58724" lon="-149.52834">
        <ele>204.41748</ele>
        <time>2012-05-18T18:00:41Z</time>
      </trkpt>
      <trkpt lat="-17.58733" lon="-149.52826">
        <ele>204.41748</ele>
        <time>2012-05-18T18:00:50Z</time>
      </trkpt>
      <trkpt lat="-17.58734" lon="-149.52824">
        <ele>204.41748</ele>
        <time>2012-05-18T18:00:53Z</time>
      </trkpt>
      <trkpt lat="-17.58744" lon="-149.52836">
        <ele>205.378784</ele>
        <time>2012-05-18T18:01:04Z</time>
      </trkpt>
      <trkpt lat="-17.58748" lon="-149.52818">
        <ele>205.378784</ele>
        <time>2012-05-18T18:01:15Z</time>
      </trkpt>
      <trkpt lat="-17.58749" lon="-149.52812">
        <ele>205.378784</ele>
        <time>2012-05-18T18:01:17Z</time>
      </trkpt>
      <trkpt lat="-17.58759" lon="-149.52808">
        <ele>206.340088</ele>
        <time>2012-05-18T18:01:26Z</time>
      </trkpt>
      <trkpt lat="-17.58769" lon="-149.52833">
        <ele>208.743408</ele>
        <time>2012-05-18T18:01:38Z</time>
      </trkpt>
      <trkpt lat="-17.58771" lon="-149.52838">
        <ele>211.627441</ele>
        <time>2012-05-18T18:01:50Z</time>
      </trkpt>
      <trkpt lat="-17.58777" lon="-149.52844">
        <ele>212.588623</ele>
        <time>2012-05-18T18:02:03Z</time>
      </trkpt>
      <trkpt lat="-17.58778" lon="-149.52848">
        <ele>213.069336</ele>
        <time>2012-05-18T18:02:06Z</time>
      </trkpt>
      <trkpt lat="-17.5879" lon="-149.52849">
        <ele>212.588623</ele>
        <time>2012-05-18T18:02:16Z</time>
      </trkpt>
      <trkpt lat="-17.58809" lon="-149.52846">
        <ele>213.069336</ele>
        <time>2012-05-18T18:02:27Z</time>
      </trkpt>
      <trkpt lat="-17.58816" lon="-149.52835">
        <ele>213.069336</ele>
        <time>2012-05-18T18:02:35Z</time>
      </trkpt>
      <trkpt lat="-17.58813" lon="-149.52815">
        <ele>214.03064</ele>
        <time>2012-05-18T18:02:41Z</time>
      </trkpt>
      <trkpt lat="-17.58822" lon="-149.52816">
        <ele>215.472656</ele>
        <time>2012-05-18T18:02:51Z</time>
      </trkpt>
      <trkpt lat="-17.58822" lon="-149.52806">
        <ele>216.43396</ele>
        <time>2012-05-18T18:03:01Z</time>
      </trkpt>
      <trkpt lat="-17.58829" lon="-149.52802">
        <ele>217.395386</ele>
        <time>2012-05-18T18:03:30Z</time>
      </trkpt>
      <trkpt lat="-17.58829" lon="-149.52802">
        <ele>216.914673</ele>
        <time>2012-05-18T18:03:31Z</time>
      </trkpt>
      <trkpt lat="-17.58831" lon="-149.52807">
        <ele>216.914673</ele>
        <time>2012-05-18T18:03:33Z</time>
      </trkpt>
      <trkpt lat="-17.58841" lon="-149.52824">
        <ele>216.914673</ele>
        <time>2012-05-18T18:03:42Z</time>
      </trkpt>
      <trkpt lat="-17.58842" lon="-149.52823">
        <ele>216.914673</ele>
        <time>2012-05-18T18:03:44Z</time>
      </trkpt>
      <trkpt lat="-17.58855" lon="-149.52838">
        <ele>216.914673</ele>
        <time>2012-05-18T18:03:57Z</time>
      </trkpt>
      <trkpt lat="-17.58847" lon="-149.52833">
        <ele>216.914673</ele>
        <time>2012-05-18T18:04:09Z</time>
      </trkpt>
      <trkpt lat="-17.58843" lon="-149.52831">
        <ele>216.914673</ele>
        <time>2012-05-18T18:04:17Z</time>
      </trkpt>
      <trkpt lat="-17.58853" lon="-149.52836">
        <ele>219.317993</ele>
        <time>2012-05-18T18:04:34Z</time>
      </trkpt>
      <trkpt lat="-17.5886" lon="-149.52828">
        <ele>219.317993</ele>
        <time>2012-05-18T18:04:48Z</time>
      </trkpt>
      <trkpt lat="-17.58861" lon="-149.52806">
        <ele>220.759888</ele>
        <time>2012-05-18T18:05:04Z</time>
      </trkpt>
      <trkpt lat="-17.58866" lon="-149.5279">
        <ele>221.721191</ele>
        <time>2012-05-18T18:05:13Z</time>
      </trkpt>
      <trkpt lat="-17.58865" lon="-149.52779">
        <ele>222.682495</ele>
        <time>2012-05-18T18:05:24Z</time>
      </trkpt>
      <trkpt lat="-17.58862" lon="-149.52769">
        <ele>223.643799</ele>
        <time>2012-05-18T18:05:36Z</time>
      </trkpt>
      <trkpt lat="-17.58857" lon="-149.52749">
        <ele>225.085938</ele>
        <time>2012-05-18T18:05:56Z</time>
      </trkpt>
      <trkpt lat="-17.58881" lon="-149.52743">
        <ele>225.566528</ele>
        <time>2012-05-18T18:06:19Z</time>
      </trkpt>
      <trkpt lat="-17.58894" lon="-149.52716">
        <ele>226.527832</ele>
        <time>2012-05-18T18:06:39Z</time>
      </trkpt>
      <trkpt lat="-17.58917" lon="-149.52723">
        <ele>227.489136</ele>
        <time>2012-05-18T18:06:57Z</time>
      </trkpt>
      <trkpt lat="-17.58928" lon="-149.52731">
        <ele>227.489136</ele>
        <time>2012-05-18T18:07:06Z</time>
      </trkpt>
      <trkpt lat="-17.58949" lon="-149.5273">
        <ele>230.373047</ele>
        <time>2012-05-18T18:07:47Z</time>
      </trkpt>
      <trkpt lat="-17.58969" lon="-149.52734">
        <ele>230.85376</ele>
        <time>2012-05-18T18:08:01Z</time>
      </trkpt>
      <trkpt lat="-17.58983" lon="-149.5275">
        <ele>231.814941</ele>
        <time>2012-05-18T18:08:15Z</time>
      </trkpt>
      <trkpt lat="-17.58991" lon="-149.52778">
        <ele>232.295776</ele>
        <time>2012-05-18T18:08:49Z</time>
      </trkpt>
      <trkpt lat="-17.58999" lon="-149.52793">
        <ele>232.776489</ele>
        <time>2012-05-18T18:08:58Z</time>
      </trkpt>
      <trkpt lat="-17.59022" lon="-149.52814">
        <ele>233.737671</ele>
        <time>2012-05-18T18:09:19Z</time>
      </trkpt>
      <trkpt lat="-17.59037" lon="-149.52819">
        <ele>234.218384</ele>
        <time>2012-05-18T18:09:31Z</time>
      </trkpt>
      <trkpt lat="-17.59043" lon="-149.52815">
        <ele>235.179688</ele>
        <time>2012-05-18T18:09:45Z</time>
      </trkpt>
      <trkpt lat="-17.59053" lon="-149.52813">
        <ele>234.699097</ele>
        <time>2012-05-18T18:09:51Z</time>
      </trkpt>
      <trkpt lat="-17.59058" lon="-149.52815">
        <ele>235.179688</ele>
        <time>2012-05-18T18:09:56Z</time>
      </trkpt>
      <trkpt lat="-17.59069" lon="-149.52839">
        <ele>234.218384</ele>
        <time>2012-05-18T18:10:10Z</time>
      </trkpt>
      <trkpt lat="-17.59055" lon="-149.52835">
        <ele>235.660278</ele>
        <time>2012-05-18T18:10:26Z</time>
      </trkpt>
      <trkpt lat="-17.59075" lon="-149.52835">
        <ele>235.660278</ele>
        <time>2012-05-18T18:10:44Z</time>
      </trkpt>
      <trkpt lat="-17.59083" lon="-149.52857">
        <ele>238.063599</ele>
        <time>2012-05-18T18:11:09Z</time>
      </trkpt>
      <trkpt lat="-17.5909" lon="-149.52856">
        <ele>238.544312</ele>
        <time>2012-05-18T18:11:26Z</time>
      </trkpt>
      <trkpt lat="-17.59092" lon="-149.52863">
        <ele>240.947632</ele>
        <time>2012-05-18T18:11:37Z</time>
      </trkpt>
      <trkpt lat="-17.59083" lon="-149.52857">
        <ele>241.428223</ele>
        <time>2012-05-18T18:11:54Z</time>
      </trkpt>
      <trkpt lat="-17.59087" lon="-149.52861">
        <ele>241.428223</ele>
        <time>2012-05-18T18:12:12Z</time>
      </trkpt>
      <trkpt lat="-17.59091" lon="-149.52854">
        <ele>241.428223</ele>
        <time>2012-05-18T18:12:23Z</time>
      </trkpt>
      <trkpt lat="-17.59104" lon="-149.52869">
        <ele>242.870239</ele>
        <time>2012-05-18T18:12:45Z</time>
      </trkpt>
      <trkpt lat="-17.59111" lon="-149.52864">
        <ele>243.831543</ele>
        <time>2012-05-18T18:13:14Z</time>
      </trkpt>
      <trkpt lat="-17.59101" lon="-149.52846">
        <ele>244.792847</ele>
        <time>2012-05-18T18:13:31Z</time>
      </trkpt>
      <trkpt lat="-17.59103" lon="-149.52846">
        <ele>244.792847</ele>
        <time>2012-05-18T18:13:32Z</time>
      </trkpt>
      <trkpt lat="-17.59112" lon="-149.52838">
        <ele>245.75415</ele>
        <time>2012-05-18T18:13:43Z</time>
      </trkpt>
      <trkpt lat="-17.5911" lon="-149.52837">
        <ele>248.638184</ele>
        <time>2012-05-18T18:13:58Z</time>
      </trkpt>
      <trkpt lat="-17.59127" lon="-149.52846">
        <ele>251.041382</ele>
        <time>2012-05-18T18:14:14Z</time>
      </trkpt>
      <trkpt lat="-17.59157" lon="-149.52859">
        <ele>251.522095</ele>
        <time>2012-05-18T18:14:28Z</time>
      </trkpt>
      <trkpt lat="-17.59181" lon="-149.52865">
        <ele>252.002808</ele>
        <time>2012-05-18T18:14:39Z</time>
      </trkpt>
      <trkpt lat="-17.59182" lon="-149.52879">
        <ele>252.963989</ele>
        <time>2012-05-18T18:14:49Z</time>
      </trkpt>
      <trkpt lat="-17.59185" lon="-149.52883">
        <ele>252.483398</ele>
        <time>2012-05-18T18:15:01Z</time>
      </trkpt>
      <trkpt lat="-17.59196" lon="-149.52869">
        <ele>252.002808</ele>
        <time>2012-05-18T18:15:15Z</time>
      </trkpt>
      <trkpt lat="-17.59199" lon="-149.52876">
        <ele>252.002808</ele>
        <time>2012-05-18T18:15:40Z</time>
      </trkpt>
      <trkpt lat="-17.592" lon="-149.52872">
        <ele>252.483398</ele>
        <time>2012-05-18T18:15:50Z</time>
      </trkpt>
      <trkpt lat="-17.59208" lon="-149.52862">
        <ele>253.925415</ele>
        <time>2012-05-18T18:15:59Z</time>
      </trkpt>
      <trkpt lat="-17.59215" lon="-149.52868">
        <ele>254.886597</ele>
        <time>2012-05-18T18:16:08Z</time>
      </trkpt>
      <trkpt lat="-17.59218" lon="-149.52878">
        <ele>254.406006</ele>
        <time>2012-05-18T18:16:18Z</time>
      </trkpt>
      <trkpt lat="-17.59237" lon="-149.52897">
        <ele>253.925415</ele>
        <time>2012-05-18T18:16:37Z</time>
      </trkpt>
      <trkpt lat="-17.59242" lon="-149.52898">
        <ele>253.444702</ele>
        <time>2012-05-18T18:16:46Z</time>
      </trkpt>
      <trkpt lat="-17.59236" lon="-149.52902">
        <ele>253.444702</ele>
        <time>2012-05-18T18:16:54Z</time>
      </trkpt>
      <trkpt lat="-17.59242" lon="-149.52932">
        <ele>253.444702</ele>
        <time>2012-05-18T18:17:04Z</time>
      </trkpt>
      <trkpt lat="-17.5923" lon="-149.52899">
        <ele>254.406006</ele>
        <time>2012-05-18T18:17:22Z</time>
      </trkpt>
      <trkpt lat="-17.59206" lon="-149.52844">
        <ele>254.886597</ele>
        <time>2012-05-18T18:17:40Z</time>
      </trkpt>
      <trkpt lat="-17.59211" lon="-149.52865">
        <ele>254.406006</ele>
        <time>2012-05-18T18:17:50Z</time>
      </trkpt>
      <trkpt lat="-17.59205" lon="-149.52853">
        <ele>255.36731</ele>
        <time>2012-05-18T18:18:04Z</time>
      </trkpt>
      <trkpt lat="-17.59241" lon="-149.52884">
        <ele>256.328735</ele>
        <time>2012-05-18T18:18:41Z</time>
      </trkpt>
      <trkpt lat="-17.59232" lon="-149.52894">
        <ele>256.328735</ele>
        <time>2012-05-18T18:19:13Z</time>
      </trkpt>
      <trkpt lat="-17.59224" lon="-149.52888">
        <ele>256.809326</ele>
        <time>2012-05-18T18:19:22Z</time>
      </trkpt>
      <trkpt lat="-17.59216" lon="-149.52857">
        <ele>257.290039</ele>
        <time>2012-05-18T18:19:35Z</time>
      </trkpt>
    </trkseg>
  </trk>
  <trk>
    <name><![CDATA[ACTIVE LOG 020]]></name>
    <trkseg>
      <trkpt lat="-17.58901" lon="-149.5294">
        <ele>243.35083</ele>
        <time>2012-05-18T18:35:36Z</time>
      </trkpt>
      <trkpt lat="-17.58894" lon="-149.52933">
        <ele>241.908936</ele>
        <time>2012-05-18T18:35:48Z</time>
      </trkpt>
      <trkpt lat="-17.58893" lon="-149.52936">
        <ele>241.428223</ele>
        <time>2012-05-18T18:35:50Z</time>
      </trkpt>
      <trkpt lat="-17.58856" lon="-149.52887">
        <ele>241.908936</ele>
        <time>2012-05-18T18:36:00Z</time>
      </trkpt>
      <trkpt lat="-17.58849" lon="-149.5287">
        <ele>242.389648</ele>
        <time>2012-05-18T18:36:06Z</time>
      </trkpt>
      <trkpt lat="-17.58847" lon="-149.52881">
        <ele>242.870239</ele>
        <time>2012-05-18T18:36:16Z</time>
      </trkpt>
      <trkpt lat="-17.58835" lon="-149.52874">
        <ele>242.389648</ele>
        <time>2012-05-18T18:36:25Z</time>
      </trkpt>
      <trkpt lat="-17.58828" lon="-149.52875">
        <ele>241.428223</ele>
        <time>2012-05-18T18:36:30Z</time>
      </trkpt>
      <trkpt lat="-17.58799" lon="-149.52836">
        <ele>239.986206</ele>
        <time>2012-05-18T18:36:40Z</time>
      </trkpt>
      <trkpt lat="-17.58778" lon="-149.52817">
        <ele>239.024902</ele>
        <time>2012-05-18T18:36:51Z</time>
      </trkpt>
      <trkpt lat="-17.58775" lon="-149.52827">
        <ele>238.063599</ele>
        <time>2012-05-18T18:37:00Z</time>
      </trkpt>
      <trkpt lat="-17.58758" lon="-149.52817">
        <ele>238.063599</ele>
        <time>2012-05-18T18:37:09Z</time>
      </trkpt>
      <trkpt lat="-17.5874" lon="-149.52814">
        <ele>238.063599</ele>
        <time>2012-05-18T18:37:21Z</time>
      </trkpt>
      <trkpt lat="-17.58744" lon="-149.52839">
        <ele>237.582886</ele>
        <time>2012-05-18T18:37:34Z</time>
      </trkpt>
      <trkpt lat="-17.58734" lon="-149.52848">
        <ele>238.063599</ele>
        <time>2012-05-18T18:37:40Z</time>
      </trkpt>
      <trkpt lat="-17.58725" lon="-149.52861">
        <ele>237.582886</ele>
        <time>2012-05-18T18:37:51Z</time>
      </trkpt>
      <trkpt lat="-17.58734" lon="-149.52859">
        <ele>237.582886</ele>
        <time>2012-05-18T18:38:01Z</time>
      </trkpt>
      <trkpt lat="-17.58766" lon="-149.52902">
        <ele>238.063599</ele>
        <time>2012-05-18T18:38:17Z</time>
      </trkpt>
      <trkpt lat="-17.58768" lon="-149.52925">
        <ele>237.582886</ele>
        <time>2012-05-18T18:38:30Z</time>
      </trkpt>
      <trkpt lat="-17.58759" lon="-149.52911">
        <ele>237.102295</ele>
        <time>2012-05-18T18:38:36Z</time>
      </trkpt>
      <trkpt lat="-17.58716" lon="-149.52875">
        <ele>237.102295</ele>
        <time>2012-05-18T18:38:50Z</time>
      </trkpt>
      <trkpt lat="-17.58685" lon="-149.52852">
        <ele>235.660278</ele>
        <time>2012-05-18T18:39:03Z</time>
      </trkpt>
      <trkpt lat="-17.58687" lon="-149.52866">
        <ele>235.660278</ele>
        <time>2012-05-18T18:39:11Z</time>
      </trkpt>
      <trkpt lat="-17.58695" lon="-149.52888">
        <ele>235.179688</ele>
        <time>2012-05-18T18:39:26Z</time>
      </trkpt>
      <trkpt lat="-17.58704" lon="-149.52894">
        <ele>235.179688</ele>
        <time>2012-05-18T18:39:35Z</time>
      </trkpt>
      <trkpt lat="-17.58707" lon="-149.52888">
        <ele>234.218384</ele>
        <time>2012-05-18T18:39:46Z</time>
      </trkpt>
      <trkpt lat="-17.58701" lon="-149.52859">
        <ele>233.737671</ele>
        <time>2012-05-18T18:39:58Z</time>
      </trkpt>
      <trkpt lat="-17.58701" lon="-149.52857">
        <ele>232.776489</ele>
        <time>2012-05-18T18:40:11Z</time>
      </trkpt>
      <trkpt lat="-17.58701" lon="-149.52856">
        <ele>231.814941</ele>
        <time>2012-05-18T18:40:24Z</time>
      </trkpt>
      <trkpt lat="-17.58707" lon="-149.52874">
        <ele>232.295776</ele>
        <time>2012-05-18T18:40:37Z</time>
      </trkpt>
      <trkpt lat="-17.58678" lon="-149.52842">
        <ele>232.295776</ele>
        <time>2012-05-18T18:40:54Z</time>
      </trkpt>
      <trkpt lat="-17.58652" lon="-149.52822">
        <ele>231.814941</ele>
        <time>2012-05-18T18:41:05Z</time>
      </trkpt>
      <trkpt lat="-17.58643" lon="-149.52825">
        <ele>231.814941</ele>
        <time>2012-05-18T18:41:11Z</time>
      </trkpt>
      <trkpt lat="-17.58647" lon="-149.52852">
        <ele>230.85376</ele>
        <time>2012-05-18T18:41:21Z</time>
      </trkpt>
      <trkpt lat="-17.58632" lon="-149.52868">
        <ele>229.411743</ele>
        <time>2012-05-18T18:41:41Z</time>
      </trkpt>
      <trkpt lat="-17.58645" lon="-149.52879">
        <ele>229.411743</ele>
        <time>2012-05-18T18:41:51Z</time>
      </trkpt>
      <trkpt lat="-17.58639" lon="-149.52877">
        <ele>228.931152</ele>
        <time>2012-05-18T18:41:58Z</time>
      </trkpt>
      <trkpt lat="-17.58619" lon="-149.52857">
        <ele>228.450439</ele>
        <time>2012-05-18T18:42:02Z</time>
      </trkpt>
      <trkpt lat="-17.5861" lon="-149.52862">
        <ele>228.450439</ele>
        <time>2012-05-18T18:42:14Z</time>
      </trkpt>
      <trkpt lat="-17.58597" lon="-149.52863">
        <ele>227.969727</ele>
        <time>2012-05-18T18:42:22Z</time>
      </trkpt>
      <trkpt lat="-17.58578" lon="-149.52836">
        <ele>227.489136</ele>
        <time>2012-05-18T18:42:34Z</time>
      </trkpt>
      <trkpt lat="-17.58585" lon="-149.52866">
        <ele>225.566528</ele>
        <time>2012-05-18T18:42:49Z</time>
      </trkpt>
      <trkpt lat="-17.58602" lon="-149.52895">
        <ele>224.124512</ele>
        <time>2012-05-18T18:43:02Z</time>
      </trkpt>
      <trkpt lat="-17.5859" lon="-149.52885">
        <ele>224.124512</ele>
        <time>2012-05-18T18:43:04Z</time>
      </trkpt>
      <trkpt lat="-17.58557" lon="-149.52866">
        <ele>223.643799</ele>
        <time>2012-05-18T18:43:16Z</time>
      </trkpt>
      <trkpt lat="-17.58564" lon="-149.52887">
        <ele>222.682495</ele>
        <time>2012-05-18T18:43:30Z</time>
      </trkpt>
      <trkpt lat="-17.5857" lon="-149.52913">
        <ele>222.682495</ele>
        <time>2012-05-18T18:43:44Z</time>
      </trkpt>
      <trkpt lat="-17.58579" lon="-149.52933">
        <ele>221.721191</ele>
        <time>2012-05-18T18:43:48Z</time>
      </trkpt>
      <trkpt lat="-17.58565" lon="-149.52915">
        <ele>221.240601</ele>
        <time>2012-05-18T18:43:56Z</time>
      </trkpt>
      <trkpt lat="-17.58563" lon="-149.52902">
        <ele>220.279175</ele>
        <time>2012-05-18T18:44:08Z</time>
      </trkpt>
      <trkpt lat="-17.58563" lon="-149.52893">
        <ele>220.279175</ele>
        <time>2012-05-18T18:44:28Z</time>
      </trkpt>
      <trkpt lat="-17.58561" lon="-149.52892">
        <ele>219.798584</ele>
        <time>2012-05-18T18:44:39Z</time>
      </trkpt>
      <trkpt lat="-17.58532" lon="-149.5286">
        <ele>220.279175</ele>
        <time>2012-05-18T18:44:49Z</time>
      </trkpt>
      <trkpt lat="-17.5853" lon="-149.5285">
        <ele>220.759888</ele>
        <time>2012-05-18T18:44:59Z</time>
      </trkpt>
      <trkpt lat="-17.58533" lon="-149.52861">
        <ele>222.201782</ele>
        <time>2012-05-18T18:45:08Z</time>
      </trkpt>
      <trkpt lat="-17.58547" lon="-149.52883">
        <ele>222.201782</ele>
        <time>2012-05-18T18:45:16Z</time>
      </trkpt>
      <trkpt lat="-17.58569" lon="-149.52915">
        <ele>222.682495</ele>
        <time>2012-05-18T18:45:19Z</time>
      </trkpt>
      <trkpt lat="-17.58556" lon="-149.52894">
        <ele>222.201782</ele>
        <time>2012-05-18T18:45:28Z</time>
      </trkpt>
      <trkpt lat="-17.58545" lon="-149.52894">
        <ele>221.721191</ele>
        <time>2012-05-18T18:45:37Z</time>
      </trkpt>
      <trkpt lat="-17.58547" lon="-149.52897">
        <ele>221.240601</ele>
        <time>2012-05-18T18:45:38Z</time>
      </trkpt>
      <trkpt lat="-17.58548" lon="-149.5289">
        <ele>221.721191</ele>
        <time>2012-05-18T18:45:44Z</time>
      </trkpt>
      <trkpt lat="-17.58517" lon="-149.52849">
        <ele>221.721191</ele>
        <time>2012-05-18T18:45:56Z</time>
      </trkpt>
      <trkpt lat="-17.5855" lon="-149.52911">
        <ele>221.721191</ele>
        <time>2012-05-18T18:46:07Z</time>
      </trkpt>
      <trkpt lat="-17.58525" lon="-149.52886">
        <ele>220.759888</ele>
        <time>2012-05-18T18:46:16Z</time>
      </trkpt>
      <trkpt lat="-17.58522" lon="-149.52873">
        <ele>219.798584</ele>
        <time>2012-05-18T18:46:24Z</time>
      </trkpt>
      <trkpt lat="-17.58527" lon="-149.52877">
        <ele>219.317993</ele>
        <time>2012-05-18T18:46:26Z</time>
      </trkpt>
      <trkpt lat="-17.58542" lon="-149.52889">
        <ele>219.798584</ele>
        <time>2012-05-18T18:46:37Z</time>
      </trkpt>
      <trkpt lat="-17.58535" lon="-149.5288">
        <ele>219.798584</ele>
        <time>2012-05-18T18:46:38Z</time>
      </trkpt>
      <trkpt lat="-17.58531" lon="-149.52883">
        <ele>219.317993</ele>
        <time>2012-05-18T18:46:49Z</time>
      </trkpt>
      <trkpt lat="-17.58558" lon="-149.52921">
        <ele>219.317993</ele>
        <time>2012-05-18T18:46:56Z</time>
      </trkpt>
      <trkpt lat="-17.58489" lon="-149.52841">
        <ele>219.798584</ele>
        <time>2012-05-18T18:47:09Z</time>
      </trkpt>
      <trkpt lat="-17.58451" lon="-149.52809">
        <ele>219.317993</ele>
        <time>2012-05-18T18:47:21Z</time>
      </trkpt>
      <trkpt lat="-17.58424" lon="-149.52768">
        <ele>219.317993</ele>
        <time>2012-05-18T18:47:31Z</time>
      </trkpt>
      <trkpt lat="-17.58392" lon="-149.52708">
        <ele>219.317993</ele>
        <time>2012-05-18T18:47:41Z</time>
      </trkpt>
      <trkpt lat="-17.58404" lon="-149.52722">
        <ele>219.317993</ele>
        <time>2012-05-18T18:47:43Z</time>
      </trkpt>
      <trkpt lat="-17.58482" lon="-149.52822">
        <ele>219.317993</ele>
        <time>2012-05-18T18:47:53Z</time>
      </trkpt>
      <trkpt lat="-17.58539" lon="-149.52893">
        <ele>219.317993</ele>
        <time>2012-05-18T18:48:04Z</time>
      </trkpt>
      <trkpt lat="-17.58539" lon="-149.52905">
        <ele>219.317993</ele>
        <time>2012-05-18T18:48:15Z</time>
      </trkpt>
      <trkpt lat="-17.58531" lon="-149.52908">
        <ele>218.83728</ele>
        <time>2012-05-18T18:48:28Z</time>
      </trkpt>
      <trkpt lat="-17.58519" lon="-149.52903">
        <ele>218.356567</ele>
        <time>2012-05-18T18:48:38Z</time>
      </trkpt>
      <trkpt lat="-17.58506" lon="-149.52898">
        <ele>218.356567</ele>
        <time>2012-05-18T18:48:42Z</time>
      </trkpt>
      <trkpt lat="-17.58494" lon="-149.52905">
        <ele>217.875977</ele>
        <time>2012-05-18T18:48:55Z</time>
      </trkpt>
      <trkpt lat="-17.5849" lon="-149.52904">
        <ele>217.875977</ele>
        <time>2012-05-18T18:49:05Z</time>
      </trkpt>
      <trkpt lat="-17.58482" lon="-149.52904">
        <ele>217.395386</ele>
        <time>2012-05-18T18:49:10Z</time>
      </trkpt>
      <trkpt lat="-17.58479" lon="-149.52913">
        <ele>217.395386</ele>
        <time>2012-05-18T18:49:17Z</time>
      </trkpt>
      <trkpt lat="-17.58461" lon="-149.52921">
        <ele>216.43396</ele>
        <time>2012-05-18T18:49:30Z</time>
      </trkpt>
      <trkpt lat="-17.58457" lon="-149.5293">
        <ele>216.914673</ele>
        <time>2012-05-18T18:49:40Z</time>
      </trkpt>
      <trkpt lat="-17.58462" lon="-149.52932">
        <ele>216.43396</ele>
        <time>2012-05-18T18:49:55Z</time>
      </trkpt>
      <trkpt lat="-17.58455" lon="-149.52924">
        <ele>216.43396</ele>
        <time>2012-05-18T18:49:58Z</time>
      </trkpt>
      <trkpt lat="-17.58402" lon="-149.52868">
        <ele>215.953247</ele>
        <time>2012-05-18T18:50:11Z</time>
      </trkpt>
      <trkpt lat="-17.58393" lon="-149.52861">
        <ele>215.953247</ele>
        <time>2012-05-18T18:50:21Z</time>
      </trkpt>
      <trkpt lat="-17.58399" lon="-149.52876">
        <ele>215.953247</ele>
        <time>2012-05-18T18:50:26Z</time>
      </trkpt>
      <trkpt lat="-17.5842" lon="-149.52911">
        <ele>215.472656</ele>
        <time>2012-05-18T18:50:37Z</time>
      </trkpt>
      <trkpt lat="-17.58424" lon="-149.5292">
        <ele>214.991943</ele>
        <time>2012-05-18T18:50:52Z</time>
      </trkpt>
      <trkpt lat="-17.58415" lon="-149.52921">
        <ele>214.03064</ele>
        <time>2012-05-18T18:51:08Z</time>
      </trkpt>
      <trkpt lat="-17.58418" lon="-149.52952">
        <ele>212.588623</ele>
        <time>2012-05-18T18:51:24Z</time>
      </trkpt>
      <trkpt lat="-17.58416" lon="-149.5296">
        <ele>212.588623</ele>
        <time>2012-05-18T18:51:28Z</time>
      </trkpt>
      <trkpt lat="-17.58374" lon="-149.52931">
        <ele>211.146729</ele>
        <time>2012-05-18T18:51:40Z</time>
      </trkpt>
      <trkpt lat="-17.58376" lon="-149.52942">
        <ele>211.146729</ele>
        <time>2012-05-18T18:51:44Z</time>
      </trkpt>
      <trkpt lat="-17.5838" lon="-149.52953">
        <ele>210.666016</ele>
        <time>2012-05-18T18:51:47Z</time>
      </trkpt>
      <trkpt lat="-17.58375" lon="-149.5295">
        <ele>210.185425</ele>
        <time>2012-05-18T18:51:50Z</time>
      </trkpt>
      <trkpt lat="-17.58391" lon="-149.52982">
        <ele>209.704834</ele>
        <time>2012-05-18T18:51:56Z</time>
      </trkpt>
      <trkpt lat="-17.58371" lon="-149.52978">
        <ele>209.224121</ele>
        <time>2012-05-18T18:52:07Z</time>
      </trkpt>
      <trkpt lat="-17.5836" lon="-149.52977">
        <ele>208.743408</ele>
        <time>2012-05-18T18:52:15Z</time>
      </trkpt>
      <trkpt lat="-17.58345" lon="-149.52974">
        <ele>208.262817</ele>
        <time>2012-05-18T18:52:25Z</time>
      </trkpt>
      <trkpt lat="-17.58357" lon="-149.53004">
        <ele>207.782104</ele>
        <time>2012-05-18T18:52:35Z</time>
      </trkpt>
      <trkpt lat="-17.58335" lon="-149.53003">
        <ele>207.301392</ele>
        <time>2012-05-18T18:52:48Z</time>
      </trkpt>
      <trkpt lat="-17.58325" lon="-149.53021">
        <ele>207.782104</ele>
        <time>2012-05-18T18:53:03Z</time>
      </trkpt>
      <trkpt lat="-17.58297" lon="-149.53006">
        <ele>207.301392</ele>
        <time>2012-05-18T18:53:15Z</time>
      </trkpt>
      <trkpt lat="-17.58286" lon="-149.52998">
        <ele>207.782104</ele>
        <time>2012-05-18T18:53:21Z</time>
      </trkpt>
      <trkpt lat="-17.58303" lon="-149.53031">
        <ele>206.820679</ele>
        <time>2012-05-18T18:53:32Z</time>
      </trkpt>
      <trkpt lat="-17.58293" lon="-149.53043">
        <ele>206.340088</ele>
        <time>2012-05-18T18:53:42Z</time>
      </trkpt>
      <trkpt lat="-17.58287" lon="-149.53056">
        <ele>206.340088</ele>
        <time>2012-05-18T18:53:53Z</time>
      </trkpt>
      <trkpt lat="-17.58285" lon="-149.53068">
        <ele>206.340088</ele>
        <time>2012-05-18T18:54:02Z</time>
      </trkpt>
      <trkpt lat="-17.58278" lon="-149.53083">
        <ele>205.378784</ele>
        <time>2012-05-18T18:54:13Z</time>
      </trkpt>
      <trkpt lat="-17.58274" lon="-149.53091">
        <ele>205.378784</ele>
        <time>2012-05-18T18:54:24Z</time>
      </trkpt>
      <trkpt lat="-17.58265" lon="-149.53095">
        <ele>204.898071</ele>
        <time>2012-05-18T18:54:34Z</time>
      </trkpt>
      <trkpt lat="-17.58252" lon="-149.53102">
        <ele>205.378784</ele>
        <time>2012-05-18T18:54:46Z</time>
      </trkpt>
      <trkpt lat="-17.58244" lon="-149.53105">
        <ele>204.41748</ele>
        <time>2012-05-18T18:54:56Z</time>
      </trkpt>
      <trkpt lat="-17.58227" lon="-149.5311">
        <ele>203.93689</ele>
        <time>2012-05-18T18:55:07Z</time>
      </trkpt>
      <trkpt lat="-17.58215" lon="-149.531">
        <ele>204.898071</ele>
        <time>2012-05-18T18:55:13Z</time>
      </trkpt>
      <trkpt lat="-17.58216" lon="-149.53107">
        <ele>203.456177</ele>
        <time>2012-05-18T18:55:18Z</time>
      </trkpt>
      <trkpt lat="-17.58225" lon="-149.53145">
        <ele>202.494873</ele>
        <time>2012-05-18T18:55:31Z</time>
      </trkpt>
      <trkpt lat="-17.58225" lon="-149.53161">
        <ele>201.052856</ele>
        <time>2012-05-18T18:55:39Z</time>
      </trkpt>
      <trkpt lat="-17.58212" lon="-149.53158">
        <ele>201.533569</ele>
        <time>2012-05-18T18:55:43Z</time>
      </trkpt>
      <trkpt lat="-17.58203" lon="-149.53155">
        <ele>201.533569</ele>
        <time>2012-05-18T18:55:47Z</time>
      </trkpt>
      <trkpt lat="-17.58174" lon="-149.53137">
        <ele>201.052856</ele>
        <time>2012-05-18T18:55:59Z</time>
      </trkpt>
      <trkpt lat="-17.58167" lon="-149.53136">
        <ele>200.572266</ele>
        <time>2012-05-18T18:56:04Z</time>
      </trkpt>
      <trkpt lat="-17.58186" lon="-149.53176">
        <ele>199.130127</ele>
        <time>2012-05-18T18:56:16Z</time>
      </trkpt>
      <trkpt lat="-17.58197" lon="-149.53212">
        <ele>199.130127</ele>
        <time>2012-05-18T18:56:26Z</time>
      </trkpt>
      <trkpt lat="-17.58192" lon="-149.53209">
        <ele>199.61084</ele>
        <time>2012-05-18T18:56:28Z</time>
      </trkpt>
      <trkpt lat="-17.58228" lon="-149.53261">
        <ele>199.61084</ele>
        <time>2012-05-18T18:56:37Z</time>
      </trkpt>
      <trkpt lat="-17.5824" lon="-149.53298">
        <ele>200.091675</ele>
        <time>2012-05-18T18:56:49Z</time>
      </trkpt>
      <trkpt lat="-17.58227" lon="-149.53286">
        <ele>201.052856</ele>
        <time>2012-05-18T18:56:59Z</time>
      </trkpt>
      <trkpt lat="-17.58199" lon="-149.53262">
        <ele>201.533569</ele>
        <time>2012-05-18T18:57:15Z</time>
      </trkpt>
      <trkpt lat="-17.58196" lon="-149.53269">
        <ele>201.533569</ele>
        <time>2012-05-18T18:57:24Z</time>
      </trkpt>
      <trkpt lat="-17.58221" lon="-149.53319">
        <ele>201.533569</ele>
        <time>2012-05-18T18:57:36Z</time>
      </trkpt>
      <trkpt lat="-17.58237" lon="-149.53346">
        <ele>201.052856</ele>
        <time>2012-05-18T18:57:43Z</time>
      </trkpt>
      <trkpt lat="-17.58232" lon="-149.53351">
        <ele>201.533569</ele>
        <time>2012-05-18T18:57:52Z</time>
      </trkpt>
      <trkpt lat="-17.58263" lon="-149.53396">
        <ele>201.052856</ele>
        <time>2012-05-18T18:58:01Z</time>
      </trkpt>
      <trkpt lat="-17.58258" lon="-149.53397">
        <ele>201.052856</ele>
        <time>2012-05-18T18:58:06Z</time>
      </trkpt>
      <trkpt lat="-17.58235" lon="-149.53371">
        <ele>200.091675</ele>
        <time>2012-05-18T18:58:16Z</time>
      </trkpt>
      <trkpt lat="-17.58219" lon="-149.53353">
        <ele>199.130127</ele>
        <time>2012-05-18T18:58:29Z</time>
      </trkpt>
      <trkpt lat="-17.58232" lon="-149.53389">
        <ele>198.168945</ele>
        <time>2012-05-18T18:58:41Z</time>
      </trkpt>
      <trkpt lat="-17.58248" lon="-149.5342">
        <ele>197.688232</ele>
        <time>2012-05-18T18:58:48Z</time>
      </trkpt>
      <trkpt lat="-17.58217" lon="-149.53371">
        <ele>198.168945</ele>
        <time>2012-05-18T18:58:52Z</time>
      </trkpt>
      <trkpt lat="-17.58202" lon="-149.53364">
        <ele>197.688232</ele>
        <time>2012-05-18T18:59:02Z</time>
      </trkpt>
      <trkpt lat="-17.58167" lon="-149.53331">
        <ele>197.688232</ele>
        <time>2012-05-18T18:59:14Z</time>
      </trkpt>
      <trkpt lat="-17.58131" lon="-149.53302">
        <ele>198.168945</ele>
        <time>2012-05-18T18:59:26Z</time>
      </trkpt>
      <trkpt lat="-17.58123" lon="-149.53302">
        <ele>198.168945</ele>
        <time>2012-05-18T18:59:32Z</time>
      </trkpt>
      <trkpt lat="-17.58116" lon="-149.53311">
        <ele>198.168945</ele>
        <time>2012-05-18T18:59:42Z</time>
      </trkpt>
      <trkpt lat="-17.58102" lon="-149.53325">
        <ele>198.649536</ele>
        <time>2012-05-18T18:59:50Z</time>
      </trkpt>
      <trkpt lat="-17.58089" lon="-149.53325">
        <ele>197.688232</ele>
        <time>2012-05-18T19:00:01Z</time>
      </trkpt>
      <trkpt lat="-17.58088" lon="-149.53331">
        <ele>197.688232</ele>
        <time>2012-05-18T19:00:08Z</time>
      </trkpt>
      <trkpt lat="-17.58072" lon="-149.53346">
        <ele>197.20752</ele>
        <time>2012-05-18T19:00:20Z</time>
      </trkpt>
      <trkpt lat="-17.58074" lon="-149.53359">
        <ele>196.726929</ele>
        <time>2012-05-18T19:00:24Z</time>
      </trkpt>
      <trkpt lat="-17.58077" lon="-149.53391">
        <ele>196.726929</ele>
        <time>2012-05-18T19:00:38Z</time>
      </trkpt>
      <trkpt lat="-17.5807" lon="-149.53388">
        <ele>196.246338</ele>
        <time>2012-05-18T19:00:44Z</time>
      </trkpt>
      <trkpt lat="-17.58051" lon="-149.5338">
        <ele>196.246338</ele>
        <time>2012-05-18T19:00:57Z</time>
      </trkpt>
      <trkpt lat="-17.58037" lon="-149.53379">
        <ele>195.765625</ele>
        <time>2012-05-18T19:01:06Z</time>
      </trkpt>
      <trkpt lat="-17.58036" lon="-149.5338">
        <ele>195.765625</ele>
        <time>2012-05-18T19:01:08Z</time>
      </trkpt>
      <trkpt lat="-17.58025" lon="-149.53391">
        <ele>194.804321</ele>
        <time>2012-05-18T19:01:22Z</time>
      </trkpt>
      <trkpt lat="-17.58012" lon="-149.53402">
        <ele>194.804321</ele>
        <time>2012-05-18T19:01:34Z</time>
      </trkpt>
      <trkpt lat="-17.58002" lon="-149.53405">
        <ele>192.881714</ele>
        <time>2012-05-18T19:01:43Z</time>
      </trkpt>
      <trkpt lat="-17.57993" lon="-149.53409">
        <ele>192.401123</ele>
        <time>2012-05-18T19:01:51Z</time>
      </trkpt>
      <trkpt lat="-17.57978" lon="-149.53407">
        <ele>192.401123</ele>
        <time>2012-05-18T19:02:01Z</time>
      </trkpt>
      <trkpt lat="-17.57969" lon="-149.53412">
        <ele>191.439575</ele>
        <time>2012-05-18T19:02:09Z</time>
      </trkpt>
      <trkpt lat="-17.57953" lon="-149.53409">
        <ele>192.401123</ele>
        <time>2012-05-18T19:02:21Z</time>
      </trkpt>
      <trkpt lat="-17.57943" lon="-149.53411">
        <ele>191.439575</ele>
        <time>2012-05-18T19:02:31Z</time>
      </trkpt>
      <trkpt lat="-17.57923" lon="-149.53417">
        <ele>190.958984</ele>
        <time>2012-05-18T19:02:50Z</time>
      </trkpt>
      <trkpt lat="-17.57913" lon="-149.5342">
        <ele>190.478394</ele>
        <time>2012-05-18T19:03:01Z</time>
      </trkpt>
      <trkpt lat="-17.57898" lon="-149.53413">
        <ele>190.478394</ele>
        <time>2012-05-18T19:03:11Z</time>
      </trkpt>
      <trkpt lat="-17.57888" lon="-149.534">
        <ele>189.997681</ele>
        <time>2012-05-18T19:03:20Z</time>
      </trkpt>
      <trkpt lat="-17.5788" lon="-149.53407">
        <ele>189.516968</ele>
        <time>2012-05-18T19:03:29Z</time>
      </trkpt>
      <trkpt lat="-17.57868" lon="-149.53397">
        <ele>189.036377</ele>
        <time>2012-05-18T19:03:39Z</time>
      </trkpt>
      <trkpt lat="-17.5786" lon="-149.53404">
        <ele>189.036377</ele>
        <time>2012-05-18T19:03:48Z</time>
      </trkpt>
      <trkpt lat="-17.57849" lon="-149.53404">
        <ele>188.555786</ele>
        <time>2012-05-18T19:03:58Z</time>
      </trkpt>
      <trkpt lat="-17.57837" lon="-149.53413">
        <ele>188.555786</ele>
        <time>2012-05-18T19:04:09Z</time>
      </trkpt>
      <trkpt lat="-17.57827" lon="-149.53411">
        <ele>188.075073</ele>
        <time>2012-05-18T19:04:20Z</time>
      </trkpt>
      <trkpt lat="-17.57814" lon="-149.5341">
        <ele>187.59436</ele>
        <time>2012-05-18T19:04:31Z</time>
      </trkpt>
      <trkpt lat="-17.57801" lon="-149.53403">
        <ele>187.11377</ele>
        <time>2012-05-18T19:04:40Z</time>
      </trkpt>
      <trkpt lat="-17.57789" lon="-149.534">
        <ele>186.633179</ele>
        <time>2012-05-18T19:04:49Z</time>
      </trkpt>
      <trkpt lat="-17.57777" lon="-149.53402">
        <ele>186.633179</ele>
        <time>2012-05-18T19:05:00Z</time>
      </trkpt>
      <trkpt lat="-17.57762" lon="-149.53405">
        <ele>186.152466</ele>
        <time>2012-05-18T19:05:13Z</time>
      </trkpt>
      <trkpt lat="-17.5775" lon="-149.53403">
        <ele>185.671753</ele>
        <time>2012-05-18T19:05:24Z</time>
      </trkpt>
      <trkpt lat="-17.57733" lon="-149.53393">
        <ele>185.671753</ele>
        <time>2012-05-18T19:05:37Z</time>
      </trkpt>
      <trkpt lat="-17.57717" lon="-149.53383">
        <ele>185.191162</ele>
        <time>2012-05-18T19:05:53Z</time>
      </trkpt>
      <trkpt lat="-17.57709" lon="-149.5339">
        <ele>184.229858</ele>
        <time>2012-05-18T19:06:04Z</time>
      </trkpt>
      <trkpt lat="-17.57705" lon="-149.534">
        <ele>184.710571</ele>
        <time>2012-05-18T19:06:12Z</time>
      </trkpt>
      <trkpt lat="-17.57698" lon="-149.53403">
        <ele>183.268433</ele>
        <time>2012-05-18T19:06:20Z</time>
      </trkpt>
      <trkpt lat="-17.57684" lon="-149.53407">
        <ele>182.787842</ele>
        <time>2012-05-18T19:06:32Z</time>
      </trkpt>
      <trkpt lat="-17.57665" lon="-149.53422">
        <ele>182.307129</ele>
        <time>2012-05-18T19:06:46Z</time>
      </trkpt>
      <trkpt lat="-17.57664" lon="-149.53427">
        <ele>182.307129</ele>
        <time>2012-05-18T19:06:49Z</time>
      </trkpt>
      <trkpt lat="-17.5766" lon="-149.53436">
        <ele>182.307129</ele>
        <time>2012-05-18T19:07:00Z</time>
      </trkpt>
      <trkpt lat="-17.57653" lon="-149.53441">
        <ele>181.826416</ele>
        <time>2012-05-18T19:07:11Z</time>
      </trkpt>
      <trkpt lat="-17.57645" lon="-149.53445">
        <ele>180.865234</ele>
        <time>2012-05-18T19:07:23Z</time>
      </trkpt>
      <trkpt lat="-17.57635" lon="-149.53454">
        <ele>180.384521</ele>
        <time>2012-05-18T19:07:32Z</time>
      </trkpt>
      <trkpt lat="-17.57625" lon="-149.5345">
        <ele>180.384521</ele>
        <time>2012-05-18T19:07:42Z</time>
      </trkpt>
      <trkpt lat="-17.5762" lon="-149.53451">
        <ele>180.384521</ele>
        <time>2012-05-18T19:07:47Z</time>
      </trkpt>
      <trkpt lat="-17.57615" lon="-149.53445">
        <ele>179.423218</ele>
        <time>2012-05-18T19:07:51Z</time>
      </trkpt>
      <trkpt lat="-17.57609" lon="-149.53446">
        <ele>178.942627</ele>
        <time>2012-05-18T19:07:56Z</time>
      </trkpt>
      <trkpt lat="-17.57594" lon="-149.53453">
        <ele>179.423218</ele>
        <time>2012-05-18T19:08:06Z</time>
      </trkpt>
      <trkpt lat="-17.57579" lon="-149.53436">
        <ele>179.423218</ele>
        <time>2012-05-18T19:08:21Z</time>
      </trkpt>
      <trkpt lat="-17.57569" lon="-149.5344">
        <ele>178.461914</ele>
        <time>2012-05-18T19:08:30Z</time>
      </trkpt>
      <trkpt lat="-17.57556" lon="-149.53439">
        <ele>178.461914</ele>
        <time>2012-05-18T19:08:43Z</time>
      </trkpt>
      <trkpt lat="-17.57546" lon="-149.53445">
        <ele>179.423218</ele>
        <time>2012-05-18T19:08:53Z</time>
      </trkpt>
      <trkpt lat="-17.57544" lon="-149.53449">
        <ele>178.461914</ele>
        <time>2012-05-18T19:08:57Z</time>
      </trkpt>
      <trkpt lat="-17.57533" lon="-149.53463">
        <ele>177.981201</ele>
        <time>2012-05-18T19:09:10Z</time>
      </trkpt>
      <trkpt lat="-17.57523" lon="-149.53469">
        <ele>177.981201</ele>
        <time>2012-05-18T19:09:22Z</time>
      </trkpt>
      <trkpt lat="-17.57513" lon="-149.53492">
        <ele>177.50061</ele>
        <time>2012-05-18T19:09:33Z</time>
      </trkpt>
      <trkpt lat="-17.57502" lon="-149.53507">
        <ele>177.50061</ele>
        <time>2012-05-18T19:09:44Z</time>
      </trkpt>
      <trkpt lat="-17.57491" lon="-149.53503">
        <ele>177.02002</ele>
        <time>2012-05-18T19:09:54Z</time>
      </trkpt>
      <trkpt lat="-17.57477" lon="-149.53506">
        <ele>176.058594</ele>
        <time>2012-05-18T19:10:06Z</time>
      </trkpt>
      <trkpt lat="-17.57472" lon="-149.53502">
        <ele>176.539307</ele>
        <time>2012-05-18T19:10:11Z</time>
      </trkpt>
      <trkpt lat="-17.57458" lon="-149.53506">
        <ele>175.577881</ele>
        <time>2012-05-18T19:10:22Z</time>
      </trkpt>
      <trkpt lat="-17.57456" lon="-149.53506">
        <ele>175.577881</ele>
        <time>2012-05-18T19:10:24Z</time>
      </trkpt>
      <trkpt lat="-17.57443" lon="-149.53508">
        <ele>174.616577</ele>
        <time>2012-05-18T19:10:36Z</time>
      </trkpt>
      <trkpt lat="-17.5743" lon="-149.5352">
        <ele>174.135864</ele>
        <time>2012-05-18T19:10:48Z</time>
      </trkpt>
      <trkpt lat="-17.57419" lon="-149.53537">
        <ele>173.655273</ele>
        <time>2012-05-18T19:10:59Z</time>
      </trkpt>
      <trkpt lat="-17.57416" lon="-149.5354">
        <ele>173.655273</ele>
        <time>2012-05-18T19:11:02Z</time>
      </trkpt>
      <trkpt lat="-17.57398" lon="-149.53532">
        <ele>173.174683</ele>
        <time>2012-05-18T19:11:18Z</time>
      </trkpt>
      <trkpt lat="-17.57382" lon="-149.53548">
        <ele>173.174683</ele>
        <time>2012-05-18T19:11:33Z</time>
      </trkpt>
      <trkpt lat="-17.57374" lon="-149.53552">
        <ele>171.732666</ele>
        <time>2012-05-18T19:11:42Z</time>
      </trkpt>
      <trkpt lat="-17.57365" lon="-149.53522">
        <ele>172.69397</ele>
        <time>2012-05-18T19:11:56Z</time>
      </trkpt>
      <trkpt lat="-17.57355" lon="-149.53533">
        <ele>172.69397</ele>
        <time>2012-05-18T19:12:06Z</time>
      </trkpt>
      <trkpt lat="-17.5734" lon="-149.5354">
        <ele>172.69397</ele>
        <time>2012-05-18T19:12:17Z</time>
      </trkpt>
      <trkpt lat="-17.57337" lon="-149.53543">
        <ele>173.655273</ele>
        <time>2012-05-18T19:12:19Z</time>
      </trkpt>
      <trkpt lat="-17.57324" lon="-149.53538">
        <ele>174.616577</ele>
        <time>2012-05-18T19:12:32Z</time>
      </trkpt>
      <trkpt lat="-17.57314" lon="-149.53542">
        <ele>174.616577</ele>
        <time>2012-05-18T19:12:43Z</time>
      </trkpt>
      <trkpt lat="-17.57295" lon="-149.5355">
        <ele>173.655273</ele>
        <time>2012-05-18T19:13:07Z</time>
      </trkpt>
      <trkpt lat="-17.57287" lon="-149.53554">
        <ele>173.655273</ele>
        <time>2012-05-18T19:13:14Z</time>
      </trkpt>
      <trkpt lat="-17.57275" lon="-149.53578">
        <ele>173.655273</ele>
        <time>2012-05-18T19:13:25Z</time>
      </trkpt>
      <trkpt lat="-17.57264" lon="-149.5359">
        <ele>173.655273</ele>
        <time>2012-05-18T19:13:36Z</time>
      </trkpt>
      <trkpt lat="-17.57255" lon="-149.53604">
        <ele>172.69397</ele>
        <time>2012-05-18T19:13:48Z</time>
      </trkpt>
      <trkpt lat="-17.57244" lon="-149.53613">
        <ele>172.69397</ele>
        <time>2012-05-18T19:13:59Z</time>
      </trkpt>
      <trkpt lat="-17.57233" lon="-149.53626">
        <ele>171.732666</ele>
        <time>2012-05-18T19:14:11Z</time>
      </trkpt>
      <trkpt lat="-17.57233" lon="-149.53648">
        <ele>171.732666</ele>
        <time>2012-05-18T19:14:26Z</time>
      </trkpt>
      <trkpt lat="-17.57231" lon="-149.53662">
        <ele>170.771362</ele>
        <time>2012-05-18T19:14:39Z</time>
      </trkpt>
      <trkpt lat="-17.5723" lon="-149.53674">
        <ele>170.771362</ele>
        <time>2012-05-18T19:14:53Z</time>
      </trkpt>
      <trkpt lat="-17.57227" lon="-149.53677">
        <ele>170.290649</ele>
        <time>2012-05-18T19:14:56Z</time>
      </trkpt>
      <trkpt lat="-17.57221" lon="-149.53682">
        <ele>169.329468</ele>
        <time>2012-05-18T19:15:05Z</time>
      </trkpt>
      <trkpt lat="-17.57212" lon="-149.53688">
        <ele>166.926025</ele>
        <time>2012-05-18T19:15:21Z</time>
      </trkpt>
      <trkpt lat="-17.57201" lon="-149.53704">
        <ele>165.964722</ele>
        <time>2012-05-18T19:15:33Z</time>
      </trkpt>
      <trkpt lat="-17.57191" lon="-149.53719">
        <ele>165.484131</ele>
        <time>2012-05-18T19:15:45Z</time>
      </trkpt>
      <trkpt lat="-17.57178" lon="-149.53721">
        <ele>165.003418</ele>
        <time>2012-05-18T19:15:57Z</time>
      </trkpt>
      <trkpt lat="-17.57168" lon="-149.53723">
        <ele>165.484131</ele>
        <time>2012-05-18T19:16:07Z</time>
      </trkpt>
      <trkpt lat="-17.57159" lon="-149.53719">
        <ele>167.406738</ele>
        <time>2012-05-18T19:16:18Z</time>
      </trkpt>
      <trkpt lat="-17.57158" lon="-149.53719">
        <ele>166.926025</ele>
        <time>2012-05-18T19:16:19Z</time>
      </trkpt>
      <trkpt lat="-17.57141" lon="-149.53725">
        <ele>167.887329</ele>
        <time>2012-05-18T19:16:33Z</time>
      </trkpt>
      <trkpt lat="-17.57131" lon="-149.53723">
        <ele>168.848755</ele>
        <time>2012-05-18T19:16:41Z</time>
      </trkpt>
      <trkpt lat="-17.57117" lon="-149.53725">
        <ele>169.810059</ele>
        <time>2012-05-18T19:16:52Z</time>
      </trkpt>
      <trkpt lat="-17.57096" lon="-149.53736">
        <ele>169.810059</ele>
        <time>2012-05-18T19:17:09Z</time>
      </trkpt>
      <trkpt lat="-17.57087" lon="-149.53744">
        <ele>169.329468</ele>
        <time>2012-05-18T19:17:18Z</time>
      </trkpt>
      <trkpt lat="-17.57081" lon="-149.53752">
        <ele>168.368042</ele>
        <time>2012-05-18T19:17:23Z</time>
      </trkpt>
      <trkpt lat="-17.57068" lon="-149.5374">
        <ele>166.926025</ele>
        <time>2012-05-18T19:17:36Z</time>
      </trkpt>
      <trkpt lat="-17.57066" lon="-149.53739">
        <ele>166.926025</ele>
        <time>2012-05-18T19:17:38Z</time>
      </trkpt>
      <trkpt lat="-17.57054" lon="-149.53724">
        <ele>164.522705</ele>
        <time>2012-05-18T19:17:53Z</time>
      </trkpt>
      <trkpt lat="-17.57039" lon="-149.53726">
        <ele>163.561523</ele>
        <time>2012-05-18T19:18:09Z</time>
      </trkpt>
      <trkpt lat="-17.57026" lon="-149.53733">
        <ele>162.600098</ele>
        <time>2012-05-18T19:18:21Z</time>
      </trkpt>
      <trkpt lat="-17.5701" lon="-149.53738">
        <ele>163.561523</ele>
        <time>2012-05-18T19:18:41Z</time>
      </trkpt>
      <trkpt lat="-17.56991" lon="-149.53734">
        <ele>162.600098</ele>
        <time>2012-05-18T19:18:55Z</time>
      </trkpt>
      <trkpt lat="-17.56977" lon="-149.5374">
        <ele>162.600098</ele>
        <time>2012-05-18T19:19:05Z</time>
      </trkpt>
      <trkpt lat="-17.5697" lon="-149.53743">
        <ele>163.080811</ele>
        <time>2012-05-18T19:19:14Z</time>
      </trkpt>
      <trkpt lat="-17.56957" lon="-149.53747">
        <ele>162.600098</ele>
        <time>2012-05-18T19:19:27Z</time>
      </trkpt>
      <trkpt lat="-17.56942" lon="-149.53738">
        <ele>161.638916</ele>
        <time>2012-05-18T19:19:38Z</time>
      </trkpt>
      <trkpt lat="-17.56936" lon="-149.53739">
        <ele>161.158203</ele>
        <time>2012-05-18T19:19:41Z</time>
      </trkpt>
      <trkpt lat="-17.56924" lon="-149.53732">
        <ele>161.158203</ele>
        <time>2012-05-18T19:19:53Z</time>
      </trkpt>
      <trkpt lat="-17.56914" lon="-149.5373">
        <ele>160.67749</ele>
        <time>2012-05-18T19:20:15Z</time>
      </trkpt>
      <trkpt lat="-17.56904" lon="-149.53735">
        <ele>159.235474</ele>
        <time>2012-05-18T19:20:33Z</time>
      </trkpt>
      <trkpt lat="-17.56893" lon="-149.53725">
        <ele>157.793579</ele>
        <time>2012-05-18T19:20:52Z</time>
      </trkpt>
      <trkpt lat="-17.56869" lon="-149.5373">
        <ele>155.390259</ele>
        <time>2012-05-18T19:21:20Z</time>
      </trkpt>
      <trkpt lat="-17.56854" lon="-149.53725">
        <ele>154.428955</ele>
        <time>2012-05-18T19:21:32Z</time>
      </trkpt>
      <trkpt lat="-17.56843" lon="-149.53728">
        <ele>154.428955</ele>
        <time>2012-05-18T19:21:41Z</time>
      </trkpt>
      <trkpt lat="-17.56827" lon="-149.53727">
        <ele>154.428955</ele>
        <time>2012-05-18T19:21:53Z</time>
      </trkpt>
      <trkpt lat="-17.56816" lon="-149.53733">
        <ele>154.909546</ele>
        <time>2012-05-18T19:22:04Z</time>
      </trkpt>
      <trkpt lat="-17.56802" lon="-149.53737">
        <ele>152.986938</ele>
        <time>2012-05-18T19:22:18Z</time>
      </trkpt>
      <trkpt lat="-17.56785" lon="-149.53731">
        <ele>152.506348</ele>
        <time>2012-05-18T19:22:33Z</time>
      </trkpt>
      <trkpt lat="-17.5677" lon="-149.5373">
        <ele>150.583618</ele>
        <time>2012-05-18T19:22:49Z</time>
      </trkpt>
      <trkpt lat="-17.56751" lon="-149.5375">
        <ele>150.103027</ele>
        <time>2012-05-18T19:23:02Z</time>
      </trkpt>
      <trkpt lat="-17.56735" lon="-149.53756">
        <ele>149.622314</ele>
        <time>2012-05-18T19:23:19Z</time>
      </trkpt>
      <trkpt lat="-17.56725" lon="-149.53765">
        <ele>149.141602</ele>
        <time>2012-05-18T19:23:30Z</time>
      </trkpt>
      <trkpt lat="-17.56707" lon="-149.53774">
        <ele>149.141602</ele>
        <time>2012-05-18T19:23:43Z</time>
      </trkpt>
      <trkpt lat="-17.56694" lon="-149.53779">
        <ele>148.661011</ele>
        <time>2012-05-18T19:23:56Z</time>
      </trkpt>
      <trkpt lat="-17.56686" lon="-149.5378">
        <ele>148.18042</ele>
        <time>2012-05-18T19:24:05Z</time>
      </trkpt>
      <trkpt lat="-17.56677" lon="-149.53781">
        <ele>147.699707</ele>
        <time>2012-05-18T19:24:15Z</time>
      </trkpt>
      <trkpt lat="-17.56676" lon="-149.5378">
        <ele>147.218994</ele>
        <time>2012-05-18T19:24:16Z</time>
      </trkpt>
      <trkpt lat="-17.56663" lon="-149.53779">
        <ele>147.218994</ele>
        <time>2012-05-18T19:24:26Z</time>
      </trkpt>
      <trkpt lat="-17.56651" lon="-149.53781">
        <ele>146.738403</ele>
        <time>2012-05-18T19:24:36Z</time>
      </trkpt>
      <trkpt lat="-17.56636" lon="-149.53783">
        <ele>146.738403</ele>
        <time>2012-05-18T19:24:47Z</time>
      </trkpt>
      <trkpt lat="-17.56621" lon="-149.53786">
        <ele>146.257812</ele>
        <time>2012-05-18T19:24:59Z</time>
      </trkpt>
      <trkpt lat="-17.56612" lon="-149.53797">
        <ele>146.257812</ele>
        <time>2012-05-18T19:25:08Z</time>
      </trkpt>
      <trkpt lat="-17.56606" lon="-149.53803">
        <ele>146.257812</ele>
        <time>2012-05-18T19:25:17Z</time>
      </trkpt>
      <trkpt lat="-17.56592" lon="-149.53812">
        <ele>145.7771</ele>
        <time>2012-05-18T19:25:29Z</time>
      </trkpt>
      <trkpt lat="-17.56583" lon="-149.53827">
        <ele>145.296387</ele>
        <time>2012-05-18T19:25:42Z</time>
      </trkpt>
      <trkpt lat="-17.56571" lon="-149.5383">
        <ele>144.815796</ele>
        <time>2012-05-18T19:25:55Z</time>
      </trkpt>
      <trkpt lat="-17.56561" lon="-149.5384">
        <ele>144.335205</ele>
        <time>2012-05-18T19:26:06Z</time>
      </trkpt>
      <trkpt lat="-17.56549" lon="-149.53847">
        <ele>143.85437</ele>
        <time>2012-05-18T19:26:20Z</time>
      </trkpt>
      <trkpt lat="-17.56538" lon="-149.53859">
        <ele>143.85437</ele>
        <time>2012-05-18T19:26:31Z</time>
      </trkpt>
      <trkpt lat="-17.56528" lon="-149.53868">
        <ele>143.373657</ele>
        <time>2012-05-18T19:26:42Z</time>
      </trkpt>
      <trkpt lat="-17.56514" lon="-149.53872">
        <ele>142.893066</ele>
        <time>2012-05-18T19:26:59Z</time>
      </trkpt>
      <trkpt lat="-17.56506" lon="-149.53884">
        <ele>142.893066</ele>
        <time>2012-05-18T19:27:08Z</time>
      </trkpt>
      <trkpt lat="-17.56501" lon="-149.5389">
        <ele>141.931763</ele>
        <time>2012-05-18T19:27:13Z</time>
      </trkpt>
      <trkpt lat="-17.56492" lon="-149.53898">
        <ele>141.931763</ele>
        <time>2012-05-18T19:27:23Z</time>
      </trkpt>
      <trkpt lat="-17.56479" lon="-149.53905">
        <ele>141.931763</ele>
        <time>2012-05-18T19:27:40Z</time>
      </trkpt>
      <trkpt lat="-17.56475" lon="-149.53907">
        <ele>141.931763</ele>
        <time>2012-05-18T19:27:44Z</time>
      </trkpt>
      <trkpt lat="-17.56465" lon="-149.5391">
        <ele>143.373657</ele>
        <time>2012-05-18T19:27:56Z</time>
      </trkpt>
      <trkpt lat="-17.56455" lon="-149.53918">
        <ele>142.893066</ele>
        <time>2012-05-18T19:28:08Z</time>
      </trkpt>
      <trkpt lat="-17.56451" lon="-149.5392">
        <ele>143.373657</ele>
        <time>2012-05-18T19:28:13Z</time>
      </trkpt>
      <trkpt lat="-17.5644" lon="-149.53921">
        <ele>142.412476</ele>
        <time>2012-05-18T19:28:23Z</time>
      </trkpt>
      <trkpt lat="-17.56423" lon="-149.53923">
        <ele>141.931763</ele>
        <time>2012-05-18T19:28:36Z</time>
      </trkpt>
      <trkpt lat="-17.5642" lon="-149.53923">
        <ele>142.412476</ele>
        <time>2012-05-18T19:28:39Z</time>
      </trkpt>
      <trkpt lat="-17.56418" lon="-149.53921">
        <ele>142.412476</ele>
        <time>2012-05-18T19:28:41Z</time>
      </trkpt>
      <trkpt lat="-17.56413" lon="-149.53918">
        <ele>142.412476</ele>
        <time>2012-05-18T19:28:45Z</time>
      </trkpt>
      <trkpt lat="-17.56401" lon="-149.53902">
        <ele>142.412476</ele>
        <time>2012-05-18T19:29:00Z</time>
      </trkpt>
      <trkpt lat="-17.56387" lon="-149.53905">
        <ele>143.373657</ele>
        <time>2012-05-18T19:29:12Z</time>
      </trkpt>
      <trkpt lat="-17.56386" lon="-149.53903">
        <ele>142.893066</ele>
        <time>2012-05-18T19:29:13Z</time>
      </trkpt>
      <trkpt lat="-17.56373" lon="-149.53889">
        <ele>143.373657</ele>
        <time>2012-05-18T19:29:28Z</time>
      </trkpt>
      <trkpt lat="-17.56361" lon="-149.53891">
        <ele>143.85437</ele>
        <time>2012-05-18T19:29:37Z</time>
      </trkpt>
      <trkpt lat="-17.56352" lon="-149.53888">
        <ele>143.373657</ele>
        <time>2012-05-18T19:29:47Z</time>
      </trkpt>
      <trkpt lat="-17.56339" lon="-149.53884">
        <ele>143.373657</ele>
        <time>2012-05-18T19:29:59Z</time>
      </trkpt>
      <trkpt lat="-17.56327" lon="-149.53879">
        <ele>142.412476</ele>
        <time>2012-05-18T19:30:10Z</time>
      </trkpt>
      <trkpt lat="-17.5631" lon="-149.53875">
        <ele>140.970459</ele>
        <time>2012-05-18T19:30:23Z</time>
      </trkpt>
      <trkpt lat="-17.56307" lon="-149.53876">
        <ele>140.489868</ele>
        <time>2012-05-18T19:30:25Z</time>
      </trkpt>
      <trkpt lat="-17.56292" lon="-149.53886">
        <ele>137.125244</ele>
        <time>2012-05-18T19:30:37Z</time>
      </trkpt>
      <trkpt lat="-17.56289" lon="-149.5389">
        <ele>137.125244</ele>
        <time>2012-05-18T19:30:41Z</time>
      </trkpt>
      <trkpt lat="-17.56276" lon="-149.53902">
        <ele>134.721924</ele>
        <time>2012-05-18T19:30:56Z</time>
      </trkpt>
      <trkpt lat="-17.56263" lon="-149.53912">
        <ele>134.241211</ele>
        <time>2012-05-18T19:31:09Z</time>
      </trkpt>
      <trkpt lat="-17.56248" lon="-149.53922">
        <ele>133.760498</ele>
        <time>2012-05-18T19:31:24Z</time>
      </trkpt>
      <trkpt lat="-17.56234" lon="-149.53927">
        <ele>132.799316</ele>
        <time>2012-05-18T19:31:40Z</time>
      </trkpt>
      <trkpt lat="-17.56227" lon="-149.53929">
        <ele>132.799316</ele>
        <time>2012-05-18T19:31:50Z</time>
      </trkpt>
      <trkpt lat="-17.56212" lon="-149.53938">
        <ele>131.837891</ele>
        <time>2012-05-18T19:32:06Z</time>
      </trkpt>
      <trkpt lat="-17.56196" lon="-149.5395">
        <ele>130.395996</ele>
        <time>2012-05-18T19:32:22Z</time>
      </trkpt>
      <trkpt lat="-17.56194" lon="-149.5396">
        <ele>129.434692</ele>
        <time>2012-05-18T19:32:44Z</time>
      </trkpt>
      <trkpt lat="-17.56195" lon="-149.53961">
        <ele>128.954102</ele>
        <time>2012-05-18T19:33:01Z</time>
      </trkpt>
    </trkseg>
  </trk>
</gpx>